Time,TemperatureF,DewpointF,PressureIn,WindDirection,WindDirectionDegrees,WindSpeedMPH,WindSpeedGustMPH,Humidity,HourlyPrecipIn,Conditions,Clouds,dailyrainin,SoftwareType,DateUTC
2013-03-12 00:01:00,45.1,9.6,28.03,SSW,202,0.0,0.0,23,0.00,,,0.00,VWS V14.00,2013-03-12 06:01:00,
2013-03-12 00:02:00,45.0,9.4,28.03,SSW,202,0.0,0.0,23,0.00,,,0.00,VWS V14.00,2013-03-12 06:02:00,
2013-03-12 00:03:00,44.6,9.1,28.03,SSW,202,0.0,0.0,23,0.00,,,0.00,VWS V14.00,2013-03-12 06:03:00,
2013-03-12 00:04:00,44.6,9.1,28.03,SSW,202,0.0,0.0,23,0.00,,,0.00,VWS V14.00,2013-03-12 06:04:00,
2013-03-12 00:08:00,44.1,8.6,28.03,SSW,202,0.0,0.0,23,0.00,,,0.00,VWS V14.00,2013-03-12 06:08:00,
2013-03-12 00:09:00,43.9,8.5,28.03,SSW,203,0.0,0.0,23,0.00,,,0.00,VWS V14.00,2013-03-12 06:09:00,
2013-03-12 00:13:00,43.7,8.3,28.03,SSW,203,0.0,0.0,23,0.00,,,0.00,VWS V14.00,2013-03-12 06:13:00,
2013-03-12 00:14:00,43.5,8.2,28.03,SSW,203,0.0,0.0,23,0.00,,,0.00,VWS V14.00,2013-03-12 06:14:00,
2013-03-12 00:15:00,43.2,7.9,28.03,SSW,203,0.0,0.0,23,0.00,,,0.00,VWS V14.00,2013-03-12 06:15:00,
2013-03-12 00:19:00,43.0,7.7,28.03,SSW,203,0.0,0.0,23,0.00,,,0.00,VWS V14.00,2013-03-12 06:19:00,
2013-03-12 00:20:00,43.2,7.9,28.03,SSW,203,0.0,0.0,23,0.00,,,0.00,VWS V14.00,2013-03-12 06:20:00,
2013-03-12 00:21:00,43.3,8.0,28.03,SSW,203,0.0,0.0,23,0.00,,,0.00,VWS V14.00,2013-03-12 06:21:00,
2013-03-12 00:22:00,43.3,8.0,28.03,SSW,203,0.0,0.0,23,0.00,,,0.00,VWS V14.00,2013-03-12 06:22:00,
2013-03-12 00:24:00,44.6,9.1,28.03,South,178,2.7,5.4,23,0.00,,,0.00,VWS V14.00,2013-03-12 06:24:00,
2013-03-12 00:26:00,44.2,8.8,28.03,South,178,0.0,5.4,23,0.00,,,0.00,VWS V14.00,2013-03-12 06:26:00,
2013-03-12 00:27:00,44.2,8.8,28.03,South,178,0.0,5.4,23,0.00,,,0.00,VWS V14.00,2013-03-12 06:27:00,
2013-03-12 00:29:00,43.7,8.3,28.03,South,178,0.0,5.4,23,0.00,,,0.00,VWS V14.00,2013-03-12 06:29:00,
2013-03-12 00:31:00,43.7,8.3,28.03,South,178,0.0,0.0,23,0.00,,,0.00,VWS V14.00,2013-03-12 06:31:00,
2013-03-12 00:32:00,43.7,8.3,28.03,South,178,0.0,0.0,23,0.00,,,0.00,VWS V14.00,2013-03-12 06:32:00,
2013-03-12 00:34:00,43.9,8.5,28.03,South,178,0.0,0.0,23,0.00,,,0.00,VWS V14.00,2013-03-12 06:34:00,
2013-03-12 00:36:00,44.1,8.6,28.03,South,178,0.0,0.0,23,0.00,,,0.00,VWS V14.00,2013-03-12 06:36:00,
2013-03-12 00:38:00,44.4,8.9,28.03,South,178,0.0,0.0,23,0.00,,,0.00,VWS V14.00,2013-03-12 06:38:00,
2013-03-12 00:40:00,44.8,9.3,28.03,South,183,2.7,4.0,23,0.00,,,0.00,VWS V14.00,2013-03-12 06:40:00,
2013-03-12 00:42:00,45.1,9.6,28.03,South,187,2.2,4.0,23,0.00,,,0.00,VWS V14.00,2013-03-12 06:42:00,
2013-03-12 00:43:00,45.1,9.6,28.03,South,187,0.0,4.0,23,0.00,,,0.00,VWS V14.00,2013-03-12 06:43:00,
2013-03-12 00:45:00,45.3,9.7,28.03,South,187,0.0,4.0,23,0.00,,,0.00,VWS V14.00,2013-03-12 06:45:00,
2013-03-12 00:48:00,45.1,9.6,28.03,South,187,0.0,0.0,23,0.00,,,0.00,VWS V14.00,2013-03-12 06:48:00,
2013-03-12 00:51:00,45.1,9.6,28.03,South,187,0.0,0.0,23,0.00,,,0.00,VWS V14.00,2013-03-12 06:51:00,
2013-03-12 00:52:00,45.3,9.7,28.03,South,188,2.7,3.6,23,0.00,,,0.00,VWS V14.00,2013-03-12 06:52:00,
2013-03-12 00:53:00,45.1,9.6,28.03,South,188,2.7,3.6,23,0.00,,,0.00,VWS V14.00,2013-03-12 06:53:00,
2013-03-12 00:54:00,45.1,9.6,28.03,SSW,201,4.9,4.9,23,0.00,,,0.00,VWS V14.00,2013-03-12 06:54:00,
2013-03-12 00:57:00,45.3,9.7,28.03,SSW,201,3.6,4.9,23,0.00,,,0.00,VWS V14.00,2013-03-12 06:57:00,
2013-03-12 00:58:00,45.3,9.7,28.03,SSW,201,2.7,4.9,23,0.00,,,0.00,VWS V14.00,2013-03-12 06:58:00,
2013-03-12 00:59:00,45.3,9.7,28.03,SSW,201,3.1,4.9,23,0.00,,,0.00,VWS V14.00,2013-03-12 06:59:00,
2013-03-12 01:02:00,45.9,10.2,28.03,SSW,201,3.1,3.6,23,0.00,,,0.00,VWS V14.00,2013-03-12 07:02:00,
2013-03-12 01:03:00,46.0,10.3,28.03,SSW,201,2.2,4.0,23,0.00,,,0.00,VWS V14.00,2013-03-12 07:03:00,
2013-03-12 01:04:00,46.0,10.3,28.03,SSW,208,3.6,4.0,23,0.00,,,0.00,VWS V14.00,2013-03-12 07:04:00,
2013-03-12 01:05:00,46.6,9.8,28.03,SSW,204,2.7,4.5,22,0.00,,,0.00,VWS V14.00,2013-03-12 07:05:00,
2013-03-12 01:07:00,46.6,9.8,28.03,SSW,204,3.1,4.5,22,0.00,,,0.00,VWS V14.00,2013-03-12 07:07:00,
2013-03-12 01:09:00,46.2,10.5,28.03,SSW,204,0.0,4.5,23,0.00,,,0.00,VWS V14.00,2013-03-12 07:09:00,
2013-03-12 01:10:00,46.2,10.5,28.03,SSW,204,3.6,4.5,23,0.00,,,0.00,VWS V14.00,2013-03-12 07:10:00,
2013-03-12 01:11:00,46.2,10.5,28.03,SSW,204,0.0,4.5,23,0.00,,,0.00,VWS V14.00,2013-03-12 07:11:00,
2013-03-12 01:12:00,46.0,10.3,28.03,SSW,205,0.0,4.5,23,0.00,,,0.00,VWS V14.00,2013-03-12 07:12:00,
2013-03-12 01:14:00,45.9,10.2,28.03,SSW,204,0.0,4.5,23,0.00,,,0.00,VWS V14.00,2013-03-12 07:14:00,
2013-03-12 01:15:00,45.7,10.0,28.03,SSW,204,0.0,0.0,23,0.00,,,0.00,VWS V14.00,2013-03-12 07:15:00,
2013-03-12 01:17:00,45.5,9.9,28.03,SSW,205,0.0,0.0,23,0.00,,,0.00,VWS V14.00,2013-03-12 07:17:00,
2013-03-12 01:19:00,45.1,9.6,28.03,SSW,204,0.0,0.0,23,0.00,,,0.00,VWS V14.00,2013-03-12 07:19:00,
2013-03-12 01:20:00,45.1,9.6,28.03,SSW,204,0.0,0.0,23,0.00,,,0.00,VWS V14.00,2013-03-12 07:20:00,
2013-03-12 01:22:00,45.0,9.4,28.03,SSW,204,0.0,0.0,23,0.00,,,0.00,VWS V14.00,2013-03-12 07:22:00,
2013-03-12 01:25:00,44.6,9.1,28.03,SSW,204,0.0,2.7,23,0.00,,,0.00,VWS V14.00,2013-03-12 07:25:00,
2013-03-12 01:27:00,44.2,8.8,28.03,SSW,204,0.0,2.7,23,0.00,,,0.00,VWS V14.00,2013-03-12 07:27:00,
2013-03-12 01:28:00,44.6,9.1,28.03,SSW,204,3.1,4.0,23,0.00,,,0.00,VWS V14.00,2013-03-12 07:28:00,
2013-03-12 01:30:00,47.3,10.4,28.03,SSW,209,3.1,5.8,22,0.00,,,0.00,VWS V14.00,2013-03-12 07:30:00,
2013-03-12 01:31:00,47.5,10.6,28.03,SSW,209,4.0,4.0,22,0.00,,,0.00,VWS V14.00,2013-03-12 07:31:00,
2013-03-12 01:32:00,48.4,11.3,28.03,SSW,209,3.1,4.0,22,0.00,,,0.00,VWS V14.00,2013-03-12 07:32:00,
2013-03-12 01:33:00,49.3,12.1,28.03,SSW,205,4.0,4.0,22,0.00,,,0.00,VWS V14.00,2013-03-12 07:33:00,
2013-03-12 01:35:00,49.3,12.1,28.03,SSW,205,2.7,5.4,22,0.00,,,0.00,VWS V14.00,2013-03-12 07:35:00,
2013-03-12 01:36:00,49.3,12.1,28.03,SSW,206,2.7,5.4,22,0.00,,,0.00,VWS V14.00,2013-03-12 07:36:00,
2013-03-12 01:37:00,49.3,12.1,28.03,SSW,207,2.2,5.4,22,0.00,,,0.00,VWS V14.00,2013-03-12 07:37:00,
2013-03-12 01:39:00,48.9,11.8,28.03,SSW,208,2.7,5.4,22,0.00,,,0.00,VWS V14.00,2013-03-12 07:39:00,
2013-03-12 01:41:00,49.1,11.9,28.03,SSW,208,2.7,5.4,22,0.00,,,0.00,VWS V14.00,2013-03-12 07:41:00,
2013-03-12 01:42:00,48.7,11.6,28.03,SSW,208,2.7,5.4,22,0.00,,,0.00,VWS V14.00,2013-03-12 07:42:00,
2013-03-12 01:43:00,48.7,11.6,28.03,SSW,208,2.2,5.4,22,0.00,,,0.00,VWS V14.00,2013-03-12 07:43:00,
2013-03-12 01:45:00,48.6,11.5,28.03,SSW,208,0.0,5.4,22,0.00,,,0.00,VWS V14.00,2013-03-12 07:45:00,
2013-03-12 01:46:00,48.2,11.1,28.03,SSW,208,0.0,0.0,22,0.00,,,0.00,VWS V14.00,2013-03-12 07:46:00,
2013-03-12 01:48:00,48.0,11.0,28.00,SSW,208,0.0,0.0,22,0.00,,,0.00,VWS V14.00,2013-03-12 07:48:00,
2013-03-12 01:49:00,47.8,10.9,28.00,SSW,208,0.0,0.0,22,0.00,,,0.00,VWS V14.00,2013-03-12 07:49:00,
2013-03-12 01:50:00,47.7,10.7,28.00,SSW,208,0.0,0.0,22,0.00,,,0.00,VWS V14.00,2013-03-12 07:50:00,
2013-03-12 01:51:00,47.7,10.7,28.00,SSW,208,0.0,0.0,22,0.00,,,0.00,VWS V14.00,2013-03-12 07:51:00,
2013-03-12 01:53:00,47.5,10.6,28.00,South,189,2.7,3.6,22,0.00,,,0.00,VWS V14.00,2013-03-12 07:53:00,
2013-03-12 01:55:00,47.3,10.4,28.00,South,190,0.0,3.6,22,0.00,,,0.00,VWS V14.00,2013-03-12 07:55:00,
2013-03-12 01:56:00,47.3,10.4,28.00,South,190,0.0,3.6,22,0.00,,,0.00,VWS V14.00,2013-03-12 07:56:00,
2013-03-12 01:58:00,46.9,10.1,28.00,South,190,0.0,3.6,22,0.00,,,0.00,VWS V14.00,2013-03-12 07:58:00,
2013-03-12 01:59:00,46.6,9.8,28.00,South,189,0.0,3.6,22,0.00,,,0.00,VWS V14.00,2013-03-12 07:59:00,
2013-03-12 02:00:00,46.2,10.5,28.00,South,189,0.0,0.0,23,0.00,,,0.00,VWS V14.00,2013-03-12 08:00:00,
2013-03-12 02:02:00,46.0,10.3,28.00,South,189,0.0,0.0,23,0.00,,,0.00,VWS V14.00,2013-03-12 08:02:00,
2013-03-12 02:03:00,45.5,9.9,28.00,South,190,0.0,0.0,23,0.00,,,0.00,VWS V14.00,2013-03-12 08:03:00,
2013-03-12 02:05:00,45.0,9.4,28.00,South,190,0.0,0.0,23,0.00,,,0.00,VWS V14.00,2013-03-12 08:05:00,
2013-03-12 02:07:00,44.6,9.1,28.00,South,190,0.0,0.0,23,0.00,,,0.00,VWS V14.00,2013-03-12 08:07:00,
2013-03-12 02:08:00,44.2,8.8,28.00,South,190,0.0,0.0,23,0.00,,,0.00,VWS V14.00,2013-03-12 08:08:00,
2013-03-12 02:12:00,43.3,8.0,28.00,South,190,0.0,0.0,23,0.00,,,0.00,VWS V14.00,2013-03-12 08:12:00,
2013-03-12 02:13:00,43.2,7.9,28.00,South,189,0.0,0.0,23,0.00,,,0.00,VWS V14.00,2013-03-12 08:13:00,
2013-03-12 02:14:00,43.0,7.7,28.00,South,189,0.0,0.0,23,0.00,,,0.00,VWS V14.00,2013-03-12 08:14:00,
2013-03-12 02:17:00,42.8,7.6,28.00,South,189,0.0,0.0,23,0.00,,,0.00,VWS V14.00,2013-03-12 08:17:00,
2013-03-12 02:18:00,43.2,7.9,28.00,South,190,0.0,0.0,23,0.00,,,0.00,VWS V14.00,2013-03-12 08:18:00,
2013-03-12 02:19:00,43.2,7.9,28.00,South,190,0.0,0.0,23,0.00,,,0.00,VWS V14.00,2013-03-12 08:19:00,
2013-03-12 02:20:00,43.3,8.0,28.00,South,190,0.0,0.0,23,0.00,,,0.00,VWS V14.00,2013-03-12 08:20:00,
2013-03-12 02:23:00,43.7,8.3,28.00,SSW,196,3.6,3.6,23,0.00,,,0.00,VWS V14.00,2013-03-12 08:23:00,
2013-03-12 02:24:00,44.2,8.8,28.00,South,185,5.8,5.8,23,0.00,,,0.00,VWS V14.00,2013-03-12 08:24:00,
2013-03-12 02:26:00,46.4,9.6,28.00,South,169,4.0,5.8,22,0.00,,,0.00,VWS V14.00,2013-03-12 08:26:00,
2013-03-12 02:28:00,47.3,10.4,28.00,South,183,2.7,5.8,22,0.00,,,0.00,VWS V14.00,2013-03-12 08:28:00,
2013-03-12 02:29:00,47.3,10.4,28.00,South,183,3.1,5.8,22,0.00,,,0.00,VWS V14.00,2013-03-12 08:29:00,
2013-03-12 02:30:00,47.3,10.4,28.00,South,184,4.0,5.8,22,0.00,,,0.00,VWS V14.00,2013-03-12 08:30:00,
2013-03-12 02:31:00,48.4,11.3,28.00,SW,217,3.6,5.8,22,0.00,,,0.00,VWS V14.00,2013-03-12 08:31:00,
2013-03-12 02:33:00,48.7,11.6,28.00,SSW,208,2.7,5.8,22,0.00,,,0.00,VWS V14.00,2013-03-12 08:33:00,
2013-03-12 02:35:00,48.4,11.3,28.00,SSW,209,5.8,5.8,22,0.00,,,0.00,VWS V14.00,2013-03-12 08:35:00,
2013-03-12 02:37:00,48.7,11.6,28.00,SSW,195,4.0,5.8,22,0.00,,,0.00,VWS V14.00,2013-03-12 08:37:00,
2013-03-12 02:38:00,48.7,11.6,28.00,SSW,195,3.1,5.8,22,0.00,,,0.00,VWS V14.00,2013-03-12 08:38:00,
2013-03-12 02:40:00,48.7,11.6,28.00,SSW,198,3.1,5.8,22,0.00,,,0.00,VWS V14.00,2013-03-12 08:40:00,
2013-03-12 02:41:00,48.6,11.5,28.00,SSW,198,3.6,5.8,22,0.00,,,0.00,VWS V14.00,2013-03-12 08:41:00,
2013-03-12 02:43:00,48.2,11.1,28.00,SSW,198,0.0,5.8,22,0.00,,,0.00,VWS V14.00,2013-03-12 08:43:00,
2013-03-12 02:46:00,47.8,10.9,28.00,SSW,203,3.1,3.6,22,0.00,,,0.00,VWS V14.00,2013-03-12 08:46:00,
2013-03-12 02:47:00,47.7,10.7,28.00,SSW,203,0.0,3.6,22,0.00,,,0.00,VWS V14.00,2013-03-12 08:47:00,
2013-03-12 02:48:00,47.5,10.6,28.00,SSW,203,4.5,5.4,22,0.00,,,0.00,VWS V14.00,2013-03-12 08:48:00,
2013-03-12 02:50:00,47.7,10.7,28.00,SSW,203,4.9,5.4,22,0.00,,,0.00,VWS V14.00,2013-03-12 08:50:00,
2013-03-12 02:52:00,48.6,11.5,28.00,SSW,198,3.6,5.4,22,0.00,,,0.00,VWS V14.00,2013-03-12 08:52:00,
2013-03-12 02:54:00,49.3,12.1,28.00,South,190,6.3,6.3,22,0.00,,,0.00,VWS V14.00,2013-03-12 08:54:00,
2013-03-12 02:55:00,49.6,12.4,28.00,South,183,4.5,6.3,22,0.00,,,0.00,VWS V14.00,2013-03-12 08:55:00,
2013-03-12 02:57:00,49.5,12.2,28.00,SSW,203,5.8,6.3,22,0.00,,,0.00,VWS V14.00,2013-03-12 08:57:00,
2013-03-12 02:59:00,49.6,12.4,28.00,South,186,5.4,6.3,22,0.00,,,0.00,VWS V14.00,2013-03-12 08:59:00,
2013-03-12 03:00:00,49.8,12.5,28.00,South,186,5.4,5.4,22,0.00,,,0.00,VWS V14.00,2013-03-12 09:00:00,
2013-03-12 03:03:00,49.6,12.4,28.00,South,190,4.9,5.8,22,0.00,,,0.00,VWS V14.00,2013-03-12 09:03:00,
2013-03-12 03:05:00,49.6,12.4,28.00,South,175,4.0,5.8,22,0.00,,,0.00,VWS V14.00,2013-03-12 09:05:00,
2013-03-12 03:08:00,49.6,12.4,28.00,SSW,194,4.0,6.3,22,0.00,,,0.00,VWS V14.00,2013-03-12 09:08:00,
2013-03-12 03:10:00,48.7,11.6,28.00,SSW,194,0.0,6.3,22,0.00,,,0.00,VWS V14.00,2013-03-12 09:10:00,
2013-03-12 03:13:00,48.0,11.0,28.00,South,187,0.0,6.3,22,0.00,,,0.00,VWS V14.00,2013-03-12 09:13:00,
2013-03-12 03:17:00,46.4,9.6,28.00,South,187,0.0,0.0,22,0.00,,,0.00,VWS V14.00,2013-03-12 09:17:00,
2013-03-12 03:18:00,45.7,10.0,28.00,South,187,0.0,0.0,23,0.00,,,0.00,VWS V14.00,2013-03-12 09:18:00,
2013-03-12 03:19:00,45.7,10.0,28.00,South,187,0.0,0.0,23,0.00,,,0.00,VWS V14.00,2013-03-12 09:19:00,
2013-03-12 03:23:00,45.0,9.4,28.00,South,187,3.6,3.6,23,0.00,,,0.00,VWS V14.00,2013-03-12 09:23:00,
2013-03-12 03:24:00,45.0,9.4,28.00,South,187,2.7,3.6,23,0.00,,,0.00,VWS V14.00,2013-03-12 09:24:00,
2013-03-12 03:25:00,45.1,9.6,28.00,South,187,2.7,3.6,23,0.00,,,0.00,VWS V14.00,2013-03-12 09:25:00,
2013-03-12 03:28:00,44.6,9.1,28.00,South,187,0.0,3.6,23,0.00,,,0.00,VWS V14.00,2013-03-12 09:28:00,
2013-03-12 03:29:00,44.1,8.6,28.00,South,187,0.0,3.6,23,0.00,,,0.00,VWS V14.00,2013-03-12 09:29:00,
2013-03-12 03:30:00,43.9,8.5,28.00,South,187,0.0,0.0,23,0.00,,,0.00,VWS V14.00,2013-03-12 09:30:00,
2013-03-12 03:34:00,43.3,8.0,28.00,South,187,0.0,0.0,23,0.00,,,0.00,VWS V14.00,2013-03-12 09:34:00,
2013-03-12 03:35:00,43.2,7.9,28.00,South,187,0.0,0.0,23,0.00,,,0.00,VWS V14.00,2013-03-12 09:35:00,
2013-03-12 03:39:00,42.4,7.3,28.00,South,187,0.0,0.0,23,0.00,,,0.00,VWS V14.00,2013-03-12 09:39:00,
2013-03-12 03:40:00,42.6,7.4,28.00,South,187,0.0,0.0,23,0.00,,,0.00,VWS V14.00,2013-03-12 09:40:00,
2013-03-12 03:41:00,42.8,7.6,28.00,South,187,0.0,0.0,23,0.00,,,0.00,VWS V14.00,2013-03-12 09:41:00,
2013-03-12 03:42:00,42.6,7.4,28.00,South,187,0.0,0.0,23,0.00,,,0.00,VWS V14.00,2013-03-12 09:42:00,
2013-03-12 03:44:00,42.4,7.3,28.00,South,187,0.0,0.0,23,0.00,,,0.00,VWS V14.00,2013-03-12 09:44:00,
2013-03-12 03:46:00,43.2,7.9,28.00,South,187,2.2,3.1,23,0.00,,,0.00,VWS V14.00,2013-03-12 09:46:00,
2013-03-12 03:47:00,43.3,8.0,28.00,South,187,0.0,3.1,23,0.00,,,0.00,VWS V14.00,2013-03-12 09:47:00,
2013-03-12 03:50:00,43.3,8.0,28.00,South,187,0.0,3.1,23,0.00,,,0.00,VWS V14.00,2013-03-12 09:50:00,
2013-03-12 03:51:00,43.3,8.0,28.00,South,187,0.0,3.1,23,0.00,,,0.00,VWS V14.00,2013-03-12 09:51:00,
2013-03-12 03:52:00,43.5,8.2,28.00,South,187,0.0,3.1,23,0.00,,,0.00,VWS V14.00,2013-03-12 09:52:00,
2013-03-12 03:53:00,43.3,8.0,28.00,South,187,0.0,3.1,23,0.00,,,0.00,VWS V14.00,2013-03-12 09:53:00,
2013-03-12 03:56:00,42.8,7.6,28.00,South,187,0.0,3.1,23,0.00,,,0.00,VWS V14.00,2013-03-12 09:56:00,
2013-03-12 03:57:00,42.3,7.1,28.00,South,187,0.0,3.1,23,0.00,,,0.00,VWS V14.00,2013-03-12 09:57:00,
2013-03-12 03:58:00,42.3,7.1,28.00,South,187,0.0,3.1,23,0.00,,,0.00,VWS V14.00,2013-03-12 09:58:00,
2013-03-12 03:59:00,42.1,7.0,28.00,South,187,0.0,3.1,23,0.00,,,0.00,VWS V14.00,2013-03-12 09:59:00,
2013-03-12 04:01:00,41.9,6.8,28.00,South,187,0.0,0.0,23,0.00,,,0.00,VWS V14.00,2013-03-12 10:01:00,
2013-03-12 04:02:00,41.9,6.8,28.00,South,187,0.0,0.0,23,0.00,,,0.00,VWS V14.00,2013-03-12 10:02:00,
2013-03-12 04:04:00,42.1,7.0,27.97,South,187,0.0,0.0,23,0.00,,,0.00,VWS V14.00,2013-03-12 10:04:00,
2013-03-12 04:05:00,42.1,7.0,27.97,South,187,0.0,0.0,23,0.00,,,0.00,VWS V14.00,2013-03-12 10:05:00,
2013-03-12 04:07:00,41.9,6.8,27.97,South,187,0.0,0.0,23,0.00,,,0.00,VWS V14.00,2013-03-12 10:07:00,
2013-03-12 04:09:00,41.5,6.5,27.97,South,187,0.0,0.0,23,0.00,,,0.00,VWS V14.00,2013-03-12 10:09:00,
2013-03-12 04:10:00,41.4,6.4,27.97,South,187,3.6,3.6,23,0.00,,,0.00,VWS V14.00,2013-03-12 10:10:00,
2013-03-12 04:12:00,41.5,6.5,27.97,South,187,3.6,3.6,23,0.00,,,0.00,VWS V14.00,2013-03-12 10:12:00,
2013-03-12 04:14:00,41.5,6.5,27.97,South,183,3.1,3.6,23,0.00,,,0.00,VWS V14.00,2013-03-12 10:14:00,
2013-03-12 04:15:00,41.5,6.5,27.97,South,183,4.5,4.5,23,0.00,,,0.00,VWS V14.00,2013-03-12 10:15:00,
2013-03-12 04:17:00,43.2,7.9,27.97,SW,215,3.1,5.4,23,0.00,,,0.00,VWS V14.00,2013-03-12 10:17:00,
2013-03-12 04:20:00,43.5,8.2,27.97,SSW,213,2.2,5.4,23,0.00,,,0.00,VWS V14.00,2013-03-12 10:20:00,
2013-03-12 04:21:00,43.2,7.9,27.97,SSW,213,0.0,5.4,23,0.00,,,0.00,VWS V14.00,2013-03-12 10:21:00,
2013-03-12 04:22:00,43.2,7.9,27.97,SSW,213,3.6,5.4,23,0.00,,,0.00,VWS V14.00,2013-03-12 10:22:00,
2013-03-12 04:25:00,43.5,8.2,27.97,SSW,213,0.0,5.4,23,0.00,,,0.00,VWS V14.00,2013-03-12 10:25:00,
2013-03-12 04:27:00,43.3,8.0,27.97,SSW,213,0.0,5.4,23,0.00,,,0.00,VWS V14.00,2013-03-12 10:27:00,
2013-03-12 04:28:00,43.2,7.9,27.97,SSW,213,0.0,5.4,23,0.00,,,0.00,VWS V14.00,2013-03-12 10:28:00,
2013-03-12 04:30:00,42.8,7.6,27.97,SSW,213,0.0,0.0,23,0.00,,,0.00,VWS V14.00,2013-03-12 10:30:00,
2013-03-12 04:32:00,42.4,7.3,27.97,SSW,213,0.0,0.0,23,0.00,,,0.00,VWS V14.00,2013-03-12 10:32:00,
2013-03-12 04:33:00,42.4,7.3,27.97,SSW,213,0.0,0.0,23,0.00,,,0.00,VWS V14.00,2013-03-12 10:33:00,
2013-03-12 04:36:00,42.3,7.1,27.97,SSW,213,0.0,0.0,23,0.00,,,0.00,VWS V14.00,2013-03-12 10:36:00,
2013-03-12 04:37:00,42.1,7.0,27.97,SSW,213,0.0,0.0,23,0.00,,,0.00,VWS V14.00,2013-03-12 10:37:00,
2013-03-12 04:38:00,42.1,7.0,27.97,SSW,213,0.0,0.0,23,0.00,,,0.00,VWS V14.00,2013-03-12 10:38:00,
2013-03-12 04:39:00,42.1,7.0,27.97,SSW,213,2.7,2.7,23,0.00,,,0.00,VWS V14.00,2013-03-12 10:39:00,
2013-03-12 04:42:00,41.7,6.7,27.97,SSW,213,2.7,3.1,23,0.00,,,0.00,VWS V14.00,2013-03-12 10:42:00,
2013-03-12 04:44:00,41.5,6.5,27.97,SSW,213,0.0,3.1,23,0.00,,,0.00,VWS V14.00,2013-03-12 10:44:00,
2013-03-12 04:45:00,41.4,6.4,27.97,SSW,213,0.0,0.0,23,0.00,,,0.00,VWS V14.00,2013-03-12 10:45:00,
2013-03-12 04:48:00,41.2,6.2,28.00,SSW,213,0.0,0.0,23,0.00,,,0.00,VWS V14.00,2013-03-12 10:48:00,
2013-03-12 04:49:00,41.0,6.1,28.00,SSW,213,0.0,0.0,23,0.00,,,0.00,VWS V14.00,2013-03-12 10:49:00,
2013-03-12 04:50:00,41.0,6.1,28.00,SSW,213,0.0,0.0,23,0.00,,,0.00,VWS V14.00,2013-03-12 10:50:00,
2013-03-12 04:51:00,40.8,6.8,28.00,SSW,213,0.0,0.0,24,0.00,,,0.00,VWS V14.00,2013-03-12 10:51:00,
2013-03-12 04:54:00,40.3,6.4,28.00,SSW,213,0.0,0.0,24,0.00,,,0.00,VWS V14.00,2013-03-12 10:54:00,
2013-03-12 04:55:00,40.3,6.4,28.00,SSW,213,0.0,0.0,24,0.00,,,0.00,VWS V14.00,2013-03-12 10:55:00,
2013-03-12 04:56:00,40.3,6.4,28.00,SSW,213,0.0,0.0,24,0.00,,,0.00,VWS V14.00,2013-03-12 10:56:00,
2013-03-12 05:00:00,40.3,6.4,28.00,SSW,213,0.0,0.0,24,0.00,,,0.00,VWS V14.00,2013-03-12 11:00:00,
2013-03-12 05:01:00,40.1,6.2,28.00,SSW,213,0.0,0.0,24,0.00,,,0.00,VWS V14.00,2013-03-12 11:01:00,
2013-03-12 05:02:00,39.9,6.1,28.00,SSW,213,0.0,0.0,24,0.00,,,0.00,VWS V14.00,2013-03-12 11:02:00,
2013-03-12 05:05:00,39.7,5.9,28.00,SSW,213,0.0,0.0,24,0.00,,,0.00,VWS V14.00,2013-03-12 11:05:00,
2013-03-12 05:07:00,39.7,5.9,28.00,SSW,213,0.0,0.0,24,0.00,,,0.00,VWS V14.00,2013-03-12 11:07:00,
2013-03-12 05:08:00,39.6,5.8,28.00,SSW,213,0.0,0.0,24,0.00,,,0.00,VWS V14.00,2013-03-12 11:08:00,
2013-03-12 05:09:00,39.6,5.8,28.00,SSW,213,0.0,0.0,24,0.00,,,0.00,VWS V14.00,2013-03-12 11:09:00,
2013-03-12 05:10:00,39.6,5.8,28.00,SSW,213,0.0,0.0,24,0.00,,,0.00,VWS V14.00,2013-03-12 11:10:00,
2013-03-12 05:12:00,39.2,5.4,28.00,SSW,213,0.0,0.0,24,0.00,,,0.00,VWS V14.00,2013-03-12 11:12:00,
2013-03-12 05:13:00,39.2,5.4,28.00,SSW,213,0.0,0.0,24,0.00,,,0.00,VWS V14.00,2013-03-12 11:13:00,
2013-03-12 05:14:00,39.0,5.3,28.00,SSW,213,0.0,0.0,24,0.00,,,0.00,VWS V14.00,2013-03-12 11:14:00,
2013-03-12 05:15:00,38.8,5.2,28.00,SSW,213,0.0,0.0,24,0.00,,,0.00,VWS V14.00,2013-03-12 11:15:00,
2013-03-12 05:18:00,38.7,5.0,28.00,SSW,213,0.0,0.0,24,0.00,,,0.00,VWS V14.00,2013-03-12 11:18:00,
2013-03-12 05:19:00,38.7,5.0,28.00,SSW,213,0.0,0.0,24,0.00,,,0.00,VWS V14.00,2013-03-12 11:19:00,
2013-03-12 05:23:00,38.5,4.8,28.00,SSW,213,0.0,0.0,24,0.00,,,0.00,VWS V14.00,2013-03-12 11:23:00,
2013-03-12 05:24:00,38.5,4.8,28.00,SSW,213,0.0,0.0,24,0.00,,,0.00,VWS V14.00,2013-03-12 11:24:00,
2013-03-12 05:25:00,38.3,4.7,28.00,SSW,213,0.0,0.0,24,0.00,,,0.00,VWS V14.00,2013-03-12 11:25:00,
2013-03-12 05:28:00,38.1,4.5,28.00,SSW,213,0.0,0.0,24,0.00,,,0.00,VWS V14.00,2013-03-12 11:28:00,
2013-03-12 05:29:00,38.1,4.5,28.00,SSW,213,0.0,0.0,24,0.00,,,0.00,VWS V14.00,2013-03-12 11:29:00,
2013-03-12 05:30:00,38.1,4.5,28.00,SSW,213,0.0,0.0,24,0.00,,,0.00,VWS V14.00,2013-03-12 11:30:00,
2013-03-12 05:33:00,37.8,4.2,28.00,SSW,213,0.0,0.0,24,0.00,,,0.00,VWS V14.00,2013-03-12 11:33:00,
2013-03-12 05:35:00,37.8,4.2,28.00,SSW,213,0.0,0.0,24,0.00,,,0.00,VWS V14.00,2013-03-12 11:35:00,
2013-03-12 05:37:00,37.6,4.1,28.00,SSW,213,0.0,0.0,24,0.00,,,0.00,VWS V14.00,2013-03-12 11:37:00,
2013-03-12 05:40:00,37.4,3.9,28.00,SSW,213,0.0,0.0,24,0.00,,,0.00,VWS V14.00,2013-03-12 11:40:00,
2013-03-12 05:41:00,37.6,4.1,28.00,SSW,213,0.0,0.0,24,0.00,,,0.00,VWS V14.00,2013-03-12 11:41:00,
2013-03-12 05:42:00,37.6,4.1,28.00,SSW,213,0.0,0.0,24,0.00,,,0.00,VWS V14.00,2013-03-12 11:42:00,
2013-03-12 05:45:00,37.9,4.4,28.00,SSW,213,0.0,0.0,24,0.00,,,0.00,VWS V14.00,2013-03-12 11:45:00,
2013-03-12 05:46:00,37.9,4.4,28.00,SSW,213,0.0,0.0,24,0.00,,,0.00,VWS V14.00,2013-03-12 11:46:00,
2013-03-12 05:48:00,38.1,4.5,28.00,SSW,213,0.0,0.0,24,0.00,,,0.00,VWS V14.00,2013-03-12 11:48:00,
2013-03-12 05:50:00,37.9,4.4,28.00,SSW,213,0.0,0.0,24,0.00,,,0.00,VWS V14.00,2013-03-12 11:50:00,
2013-03-12 05:51:00,37.9,4.4,28.00,SSW,213,0.0,0.0,24,0.00,,,0.00,VWS V14.00,2013-03-12 11:51:00,
2013-03-12 05:53:00,37.6,4.1,28.00,SSW,213,0.0,0.0,24,0.00,,,0.00,VWS V14.00,2013-03-12 11:53:00,
2013-03-12 05:55:00,37.4,3.9,28.00,SSW,213,0.0,0.0,24,0.00,,,0.00,VWS V14.00,2013-03-12 11:55:00,
2013-03-12 05:56:00,37.4,3.9,28.00,SSW,213,0.0,0.0,24,0.00,,,0.00,VWS V14.00,2013-03-12 11:56:00,
2013-03-12 05:58:00,37.2,4.7,28.00,SSW,213,0.0,0.0,25,0.00,,,0.00,VWS V14.00,2013-03-12 11:58:00,
2013-03-12 06:01:00,37.0,4.5,28.00,SSW,213,0.0,0.0,25,0.00,,,0.00,VWS V14.00,2013-03-12 12:01:00,
2013-03-12 06:02:00,37.0,4.5,28.00,SSW,213,0.0,0.0,25,0.00,,,0.00,VWS V14.00,2013-03-12 12:02:00,
2013-03-12 06:04:00,36.7,4.2,28.00,SSW,213,0.0,0.0,25,0.00,,,0.00,VWS V14.00,2013-03-12 12:04:00,
2013-03-12 06:06:00,36.7,4.2,28.00,SSW,213,0.0,0.0,25,0.00,,,0.00,VWS V14.00,2013-03-12 12:06:00,
2013-03-12 06:07:00,36.7,4.2,28.00,SSW,213,0.0,0.0,25,0.00,,,0.00,VWS V14.00,2013-03-12 12:07:00,
2013-03-12 06:10:00,36.7,4.2,28.00,SSW,213,0.0,0.0,25,0.00,,,0.00,VWS V14.00,2013-03-12 12:10:00,
2013-03-12 06:11:00,36.7,4.2,28.00,SSW,213,0.0,0.0,25,0.00,,,0.00,VWS V14.00,2013-03-12 12:11:00,
2013-03-12 06:12:00,36.7,4.2,28.00,SSW,213,0.0,0.0,25,0.00,,,0.00,VWS V14.00,2013-03-12 12:12:00,
2013-03-12 06:14:00,36.7,4.2,28.00,SSW,213,0.0,0.0,25,0.00,,,0.00,VWS V14.00,2013-03-12 12:14:00,
2013-03-12 06:15:00,36.7,4.2,28.00,SSW,213,0.0,0.0,25,0.00,,,0.00,VWS V14.00,2013-03-12 12:15:00,
2013-03-12 06:16:00,36.7,4.2,28.00,SSW,213,0.0,0.0,25,0.00,,,0.00,VWS V14.00,2013-03-12 12:16:00,
2013-03-12 06:18:00,36.7,4.2,28.00,SSW,213,0.0,0.0,25,0.00,,,0.00,VWS V14.00,2013-03-12 12:18:00,
2013-03-12 06:20:00,36.7,4.2,28.00,SSW,213,0.0,0.0,25,0.00,,,0.00,VWS V14.00,2013-03-12 12:20:00,
2013-03-12 06:22:00,37.0,4.5,28.00,SSW,213,0.0,0.0,25,0.00,,,0.00,VWS V14.00,2013-03-12 12:22:00,
2013-03-12 06:23:00,37.2,4.7,28.00,SSW,213,0.0,0.0,25,0.00,,,0.00,VWS V14.00,2013-03-12 12:23:00,
2013-03-12 06:26:00,37.0,4.5,28.00,SSW,213,0.0,0.0,25,0.00,,,0.00,VWS V14.00,2013-03-12 12:26:00,
2013-03-12 06:28:00,36.9,4.3,28.00,SSW,213,0.0,0.0,25,0.00,,,0.00,VWS V14.00,2013-03-12 12:28:00,
2013-03-12 06:29:00,36.9,4.3,28.00,SSW,213,0.0,0.0,25,0.00,,,0.00,VWS V14.00,2013-03-12 12:29:00,
2013-03-12 06:31:00,36.7,4.2,28.00,SSW,213,0.0,0.0,25,0.00,,,0.00,VWS V14.00,2013-03-12 12:31:00,
2013-03-12 06:33:00,36.9,4.3,28.00,SSW,213,0.0,0.0,25,0.00,,,0.00,VWS V14.00,2013-03-12 12:33:00,
2013-03-12 06:34:00,36.9,4.3,28.00,SSW,213,0.0,0.0,25,0.00,,,0.00,VWS V14.00,2013-03-12 12:34:00,
2013-03-12 06:39:00,37.2,5.5,28.00,SSW,213,0.0,0.0,26,0.00,,,0.00,VWS V14.00,2013-03-12 12:39:00,
2013-03-12 06:41:00,37.2,6.3,28.00,SSW,213,0.0,0.0,27,0.00,,,0.00,VWS V14.00,2013-03-12 12:41:00,
2013-03-12 06:44:00,37.0,6.2,28.00,SSW,213,0.0,0.0,27,0.00,,,0.00,VWS V14.00,2013-03-12 12:44:00,
2013-03-12 06:45:00,37.0,6.2,28.00,SSW,213,0.0,0.0,27,0.00,,,0.00,VWS V14.00,2013-03-12 12:45:00,
2013-03-12 06:49:00,36.9,6.0,28.00,SSW,213,0.0,0.0,27,0.00,,,0.00,VWS V14.00,2013-03-12 12:49:00,
2013-03-12 06:50:00,36.7,5.9,28.00,SSW,213,0.0,0.0,27,0.00,,,0.00,VWS V14.00,2013-03-12 12:50:00,
2013-03-12 06:53:00,36.5,5.7,28.00,SSW,213,0.0,0.0,27,0.00,,,0.00,VWS V14.00,2013-03-12 12:53:00,
2013-03-12 06:54:00,36.5,5.7,28.00,SSW,213,0.0,0.0,27,0.00,,,0.00,VWS V14.00,2013-03-12 12:54:00,
2013-03-12 06:55:00,36.5,5.7,28.00,SSW,213,0.0,0.0,27,0.00,,,0.00,VWS V14.00,2013-03-12 12:55:00,
2013-03-12 06:57:00,36.5,6.5,28.00,SSW,213,0.0,0.0,28,0.00,,,0.00,VWS V14.00,2013-03-12 12:57:00,
2013-03-12 06:59:00,36.5,6.5,28.00,SSW,213,0.0,0.0,28,0.00,,,0.00,VWS V14.00,2013-03-12 12:59:00,
2013-03-12 07:01:00,36.5,6.5,28.00,SSW,213,0.0,0.0,28,0.00,,,0.00,VWS V14.00,2013-03-12 13:01:00,
2013-03-12 07:03:00,36.5,7.3,28.00,SSW,213,0.0,0.0,29,0.00,,,0.00,VWS V14.00,2013-03-12 13:03:00,
2013-03-12 07:04:00,36.3,7.1,28.00,SSW,213,0.0,0.0,29,0.00,,,0.00,VWS V14.00,2013-03-12 13:04:00,
2013-03-12 07:05:00,36.3,6.3,28.00,SSW,213,0.0,0.0,28,0.00,,,0.00,VWS V14.00,2013-03-12 13:05:00,
2013-03-12 07:06:00,36.3,7.1,28.00,SSW,213,0.0,0.0,29,0.00,,,0.00,VWS V14.00,2013-03-12 13:06:00,
2013-03-12 07:09:00,36.5,6.5,28.00,SSW,213,0.0,0.0,28,0.00,,,0.00,VWS V14.00,2013-03-12 13:09:00,
2013-03-12 07:10:00,36.5,6.5,28.00,SSW,213,0.0,0.0,28,0.00,,,0.00,VWS V14.00,2013-03-12 13:10:00,
2013-03-12 07:12:00,36.5,7.3,28.00,SSW,213,0.0,0.0,29,0.00,,,0.00,VWS V14.00,2013-03-12 13:12:00,
2013-03-12 07:14:00,36.7,7.4,28.00,SSW,213,0.0,0.0,29,0.00,,,0.00,VWS V14.00,2013-03-12 13:14:00,
2013-03-12 07:15:00,36.7,7.4,28.00,SSW,213,0.0,0.0,29,0.00,,,0.00,VWS V14.00,2013-03-12 13:15:00,
2013-03-12 07:17:00,37.0,7.8,28.00,SSW,213,0.0,0.0,29,0.00,,,0.00,VWS V14.00,2013-03-12 13:17:00,
2013-03-12 07:19:00,37.6,8.2,28.00,SSW,213,0.0,0.0,29,0.00,,,0.00,VWS V14.00,2013-03-12 13:19:00,
2013-03-12 07:20:00,37.6,8.2,28.00,SSW,213,0.0,0.0,29,0.00,,,0.00,VWS V14.00,2013-03-12 13:20:00,
2013-03-12 07:23:00,38.1,6.3,28.00,SSW,213,0.0,0.0,26,0.00,,,0.00,VWS V14.00,2013-03-12 13:23:00,
2013-03-12 07:25:00,38.7,5.9,28.00,SSW,213,0.0,0.0,25,0.00,,,0.00,VWS V14.00,2013-03-12 13:25:00,
2013-03-12 07:28:00,39.4,6.5,28.00,SSW,213,0.0,0.0,25,0.00,,,0.00,VWS V14.00,2013-03-12 13:28:00,
2013-03-12 07:32:00,40.3,7.3,28.00,SSW,213,0.0,0.0,25,0.00,,,0.00,VWS V14.00,2013-03-12 13:32:00,
2013-03-12 07:33:00,40.3,7.3,28.00,SSW,213,0.0,0.0,25,0.00,,,0.00,VWS V14.00,2013-03-12 13:33:00,
2013-03-12 07:34:00,40.3,7.3,28.00,SSW,213,0.0,0.0,25,0.00,,,0.00,VWS V14.00,2013-03-12 13:34:00,
2013-03-12 07:38:00,40.6,7.6,28.00,SSW,213,0.0,0.0,25,0.00,,,0.00,VWS V14.00,2013-03-12 13:38:00,
2013-03-12 07:39:00,40.8,7.7,28.00,SSW,213,0.0,0.0,25,0.00,,,0.00,VWS V14.00,2013-03-12 13:39:00,
2013-03-12 07:41:00,41.2,8.0,28.00,SSW,213,0.0,0.0,25,0.00,,,0.00,VWS V14.00,2013-03-12 13:41:00,
2013-03-12 07:43:00,41.7,8.5,28.00,SSW,213,0.0,0.0,25,0.00,,,0.00,VWS V14.00,2013-03-12 13:43:00,
2013-03-12 07:44:00,42.1,8.8,28.00,SSW,213,0.0,0.0,25,0.00,,,0.00,VWS V14.00,2013-03-12 13:44:00,
2013-03-12 07:45:00,42.1,8.8,28.00,SSW,213,0.0,0.0,25,0.00,,,0.00,VWS V14.00,2013-03-12 13:45:00,
2013-03-12 07:46:00,42.3,9.0,28.00,SSW,213,0.0,0.0,25,0.00,,,0.00,VWS V14.00,2013-03-12 13:46:00,
2013-03-12 07:49:00,42.8,9.4,28.00,SSW,213,0.0,0.0,25,0.00,,,0.00,VWS V14.00,2013-03-12 13:49:00,
2013-03-12 07:51:00,42.8,9.4,28.00,SSW,213,0.0,0.0,25,0.00,,,0.00,VWS V14.00,2013-03-12 13:51:00,
2013-03-12 07:52:00,42.8,9.4,28.00,SSW,213,0.0,0.0,25,0.00,,,0.00,VWS V14.00,2013-03-12 13:52:00,
2013-03-12 07:56:00,43.0,8.7,28.00,SSW,213,0.0,0.0,24,0.00,,,0.00,VWS V14.00,2013-03-12 13:56:00,
2013-03-12 07:57:00,43.2,8.8,28.00,SSW,213,0.0,0.0,24,0.00,,,0.00,VWS V14.00,2013-03-12 13:57:00,
2013-03-12 07:58:00,43.3,8.0,28.00,SSW,213,0.0,0.0,23,0.00,,,0.00,VWS V14.00,2013-03-12 13:58:00,
2013-03-12 08:01:00,43.9,8.5,28.00,SSW,213,0.0,0.0,23,0.00,,,0.00,VWS V14.00,2013-03-12 14:01:00,
2013-03-12 08:02:00,44.1,9.6,28.00,SSW,213,0.0,0.0,24,0.00,,,0.00,VWS V14.00,2013-03-12 14:02:00,
2013-03-12 08:04:00,44.2,8.8,28.00,SSW,213,0.0,0.0,23,0.00,,,0.00,VWS V14.00,2013-03-12 14:04:00,
2013-03-12 08:05:00,44.6,9.1,28.00,SSW,213,0.0,0.0,23,0.00,,,0.00,VWS V14.00,2013-03-12 14:05:00,
2013-03-12 08:07:00,45.3,9.7,28.00,SSW,213,0.0,0.0,23,0.00,,,0.00,VWS V14.00,2013-03-12 14:07:00,
2013-03-12 08:08:00,45.3,9.7,28.00,SSW,213,0.0,0.0,23,0.00,,,0.00,VWS V14.00,2013-03-12 14:08:00,
2013-03-12 08:09:00,45.5,9.9,28.00,SSW,213,0.0,0.0,23,0.00,,,0.00,VWS V14.00,2013-03-12 14:09:00,
2013-03-12 08:10:00,46.0,10.3,28.00,SSW,213,0.0,0.0,23,0.00,,,0.00,VWS V14.00,2013-03-12 14:10:00,
2013-03-12 08:14:00,46.8,9.9,28.00,SSW,213,0.0,0.0,22,0.00,,,0.00,VWS V14.00,2013-03-12 14:14:00,
2013-03-12 08:19:00,47.8,10.9,28.00,SSW,213,0.0,0.0,22,0.00,,,0.00,VWS V14.00,2013-03-12 14:19:00,
2013-03-12 08:21:00,48.2,11.1,28.00,SSW,213,0.0,0.0,22,0.00,,,0.00,VWS V14.00,2013-03-12 14:21:00,
2013-03-12 08:24:00,48.6,11.5,28.00,SSW,213,0.0,0.0,22,0.00,,,0.00,VWS V14.00,2013-03-12 14:24:00,
2013-03-12 08:25:00,48.7,11.6,28.00,SSW,213,0.0,0.0,22,0.00,,,0.00,VWS V14.00,2013-03-12 14:25:00,
2013-03-12 08:26:00,48.9,11.8,28.00,SSW,213,0.0,0.0,22,0.00,,,0.00,VWS V14.00,2013-03-12 14:26:00,
2013-03-12 08:27:00,49.1,11.9,28.00,SSW,213,0.0,0.0,22,0.00,,,0.00,VWS V14.00,2013-03-12 14:27:00,
2013-03-12 08:30:00,50.7,12.2,28.00,SW,220,0.0,5.8,21,0.00,,,0.00,VWS V14.00,2013-03-12 14:30:00,
2013-03-12 08:32:00,51.6,13.0,28.00,SSW,198,2.2,3.6,21,0.00,,,0.00,VWS V14.00,2013-03-12 14:32:00,
2013-03-12 08:34:00,53.1,14.2,28.03,South,183,5.8,5.8,21,0.00,,,0.00,VWS V14.00,2013-03-12 14:34:00,
2013-03-12 08:36:00,54.7,15.5,28.03,South,183,8.1,8.1,21,0.00,,,0.00,VWS V14.00,2013-03-12 14:36:00,
2013-03-12 08:37:00,54.9,15.7,28.03,South,183,3.6,8.1,21,0.00,,,0.00,VWS V14.00,2013-03-12 14:37:00,
2013-03-12 08:40:00,55.4,15.0,28.03,South,190,6.3,8.1,20,0.00,,,0.00,VWS V14.00,2013-03-12 14:40:00,
2013-03-12 08:42:00,56.3,15.8,28.03,South,178,6.3,8.1,20,0.00,,,0.00,VWS V14.00,2013-03-12 14:42:00,
2013-03-12 08:44:00,56.5,15.9,28.03,South,187,7.6,8.1,20,0.00,,,0.00,VWS V14.00,2013-03-12 14:44:00,
2013-03-12 08:45:00,56.8,16.2,28.03,South,169,5.4,8.1,20,0.00,,,0.00,VWS V14.00,2013-03-12 14:45:00,
2013-03-12 08:47:00,57.2,16.5,28.03,South,178,6.3,7.6,20,0.00,,,0.00,VWS V14.00,2013-03-12 14:47:00,
2013-03-12 08:49:00,57.4,16.7,28.03,SSW,205,5.4,7.6,20,0.00,,,0.00,VWS V14.00,2013-03-12 14:49:00,
2013-03-12 08:50:00,58.3,17.4,28.03,SSW,211,5.4,7.6,20,0.00,,,0.00,VWS V14.00,2013-03-12 14:50:00,
2013-03-12 08:52:00,58.5,17.6,28.03,South,189,5.8,8.7,20,0.00,,,0.00,VWS V14.00,2013-03-12 14:52:00,
2013-03-12 08:54:00,59.0,16.8,28.03,SSW,202,5.4,8.7,19,0.00,,,0.00,VWS V14.00,2013-03-12 14:54:00,
2013-03-12 08:55:00,59.0,16.8,28.03,South,191,6.3,8.7,19,0.00,,,0.00,VWS V14.00,2013-03-12 14:55:00,
2013-03-12 08:57:00,58.6,17.7,28.03,South,183,5.8,8.7,20,0.00,,,0.00,VWS V14.00,2013-03-12 14:57:00,
2013-03-12 09:00:00,59.4,17.1,28.03,South,170,5.4,6.3,19,0.00,,,0.00,VWS V14.00,2013-03-12 15:00:00,
2013-03-12 09:01:00,60.1,17.7,28.03,SSE,164,8.3,8.3,19,0.00,,,0.00,VWS V14.00,2013-03-12 15:01:00,
2013-03-12 09:03:00,59.0,16.8,28.03,South,183,4.9,8.3,19,0.00,,,0.00,VWS V14.00,2013-03-12 15:03:00,
2013-03-12 09:05:00,59.7,17.4,28.03,South,191,6.3,8.3,19,0.00,,,0.00,VWS V14.00,2013-03-12 15:05:00,
2013-03-12 09:08:00,62.8,19.9,28.03,South,190,11.9,11.9,19,0.00,,,0.00,VWS V14.00,2013-03-12 15:08:00,
2013-03-12 09:13:00,65.7,21.0,28.03,South,174,3.6,12.3,18,0.00,,,0.00,VWS V14.00,2013-03-12 15:13:00,
2013-03-12 09:14:00,66.2,21.5,28.03,South,179,3.1,12.3,18,0.00,,,0.00,VWS V14.00,2013-03-12 15:14:00,
2013-03-12 09:18:00,62.6,19.8,28.03,South,170,8.1,8.7,19,0.00,,,0.00,VWS V14.00,2013-03-12 15:18:00,
2013-03-12 09:19:00,61.3,18.8,28.03,South,175,4.9,8.7,19,0.00,,,0.00,VWS V14.00,2013-03-12 15:19:00,
2013-03-12 09:20:00,63.3,20.4,28.03,SSW,196,8.7,8.7,19,0.00,,,0.00,VWS V14.00,2013-03-12 15:20:00,
2013-03-12 09:23:00,61.5,18.9,28.03,South,187,5.8,8.7,19,0.00,,,0.00,VWS V14.00,2013-03-12 15:23:00,
2013-03-12 09:24:00,61.9,19.2,28.03,SSW,203,6.3,8.7,19,0.00,,,0.00,VWS V14.00,2013-03-12 15:24:00,
2013-03-12 09:25:00,63.1,20.2,28.03,SSW,199,6.3,8.7,19,0.00,,,0.00,VWS V14.00,2013-03-12 15:25:00,
2013-03-12 09:26:00,63.5,20.5,28.03,SSW,196,5.8,8.7,19,0.00,,,0.00,VWS V14.00,2013-03-12 15:26:00,
2013-03-12 09:30:00,64.4,20.0,28.03,South,186,6.3,8.7,18,0.00,,,0.00,VWS V14.00,2013-03-12 15:30:00,
2013-03-12 09:31:00,63.3,20.4,28.03,South,172,5.4,8.1,19,0.00,,,0.00,VWS V14.00,2013-03-12 15:31:00,
2013-03-12 09:35:00,64.9,20.4,28.03,South,183,5.4,8.1,18,0.00,,,0.00,VWS V14.00,2013-03-12 15:35:00,
2013-03-12 09:36:00,63.1,20.2,28.03,SSW,213,10.1,10.1,19,0.00,,,0.00,VWS V14.00,2013-03-12 15:36:00,
2013-03-12 09:37:00,63.1,20.2,28.03,SSW,204,8.7,10.1,19,0.00,,,0.00,VWS V14.00,2013-03-12 15:37:00,
2013-03-12 09:38:00,63.0,20.1,28.03,SSW,206,8.1,12.3,19,0.00,,,0.00,VWS V14.00,2013-03-12 15:38:00,
2013-03-12 09:40:00,64.8,20.3,28.03,South,189,8.3,12.3,18,0.00,,,0.00,VWS V14.00,2013-03-12 15:40:00,
2013-03-12 09:42:00,64.4,20.0,28.03,South,185,6.3,12.3,18,0.00,,,0.00,VWS V14.00,2013-03-12 15:42:00,
2013-03-12 09:44:00,66.0,21.3,28.03,SSW,193,8.1,12.3,18,0.00,,,0.00,VWS V14.00,2013-03-12 15:44:00,
2013-03-12 09:47:00,66.4,21.6,28.03,South,175,8.7,8.7,18,0.00,,,0.00,VWS V14.00,2013-03-12 15:47:00,
2013-03-12 09:48:00,67.6,22.6,28.06,South,177,6.3,8.7,18,0.00,,,0.00,VWS V14.00,2013-03-12 15:48:00,
2013-03-12 09:49:00,66.6,21.8,28.06,SSW,193,7.6,8.7,18,0.00,,,0.00,VWS V14.00,2013-03-12 15:49:00,
2013-03-12 09:53:00,68.2,23.1,28.06,South,184,4.9,8.7,18,0.00,,,0.00,VWS V14.00,2013-03-12 15:53:00,
2013-03-12 09:54:00,66.4,21.6,28.06,SSW,192,8.3,8.7,18,0.00,,,0.00,VWS V14.00,2013-03-12 15:54:00,
2013-03-12 09:55:00,65.1,20.6,28.06,South,176,10.5,13.6,18,0.00,,,0.00,VWS V14.00,2013-03-12 15:55:00,
2013-03-12 09:58:00,65.8,21.2,28.06,South,169,4.9,13.6,18,0.00,,,0.00,VWS V14.00,2013-03-12 15:58:00,
2013-03-12 09:59:00,67.1,22.2,28.06,SSW,200,5.8,13.6,18,0.00,,,0.00,VWS V14.00,2013-03-12 15:59:00,
2013-03-12 10:01:00,68.4,23.2,28.06,South,184,5.4,8.3,18,0.00,,,0.00,VWS V14.00,2013-03-12 16:01:00,
2013-03-12 10:04:00,67.5,22.5,28.06,SSW,199,8.7,13.2,18,0.00,,,0.00,VWS V14.00,2013-03-12 16:04:00,
2013-03-12 10:06:00,68.0,23.0,28.06,South,182,8.3,13.2,18,0.00,,,0.00,VWS V14.00,2013-03-12 16:06:00,
2013-03-12 10:07:00,68.7,23.5,28.06,SSW,196,5.8,13.2,18,0.00,,,0.00,VWS V14.00,2013-03-12 16:07:00,
2013-03-12 10:09:00,67.1,22.2,28.06,South,189,8.1,13.2,18,0.00,,,0.00,VWS V14.00,2013-03-12 16:09:00,
2013-03-12 10:10:00,67.1,22.2,28.06,South,183,8.1,13.2,18,0.00,,,0.00,VWS V14.00,2013-03-12 16:10:00,
2013-03-12 10:12:00,68.9,23.7,28.06,SSE,161,8.1,13.2,18,0.00,,,0.00,VWS V14.00,2013-03-12 16:12:00,
2013-03-12 10:13:00,68.9,23.7,28.06,SW,216,8.3,13.2,18,0.00,,,0.00,VWS V14.00,2013-03-12 16:13:00,
2013-03-12 10:14:00,70.3,23.5,28.06,South,177,4.0,13.2,17,0.00,,,0.00,VWS V14.00,2013-03-12 16:14:00,
2013-03-12 10:15:00,69.6,24.3,28.06,South,177,8.1,13.2,18,0.00,,,0.00,VWS V14.00,2013-03-12 16:15:00,
2013-03-12 10:18:00,69.4,24.1,28.06,SW,232,5.4,10.5,18,0.00,,,0.00,VWS V14.00,2013-03-12 16:18:00,
2013-03-12 10:20:00,72.1,25.0,28.06,SSE,164,8.7,10.5,17,0.00,,,0.00,VWS V14.00,2013-03-12 16:20:00,
2013-03-12 10:22:00,70.3,23.5,28.06,SSW,201,3.6,12.3,17,0.00,,,0.00,VWS V14.00,2013-03-12 16:22:00,
2013-03-12 10:24:00,70.7,23.8,28.06,SSW,203,7.6,12.3,17,0.00,,,0.00,VWS V14.00,2013-03-12 16:24:00,
2013-03-12 10:25:00,70.9,23.9,28.06,South,190,8.1,12.3,17,0.00,,,0.00,VWS V14.00,2013-03-12 16:25:00,
2013-03-12 10:29:00,71.1,24.1,28.06,SSE,164,5.4,12.3,17,0.00,,,0.00,VWS V14.00,2013-03-12 16:29:00,
2013-03-12 10:30:00,71.1,24.1,28.06,South,190,7.2,12.3,17,0.00,,,0.00,VWS V14.00,2013-03-12 16:30:00,
2013-03-12 10:31:00,71.2,24.2,28.06,SSW,198,8.1,8.3,17,0.00,,,0.00,VWS V14.00,2013-03-12 16:31:00,
2013-03-12 10:33:00,71.1,24.1,28.06,SSW,195,9.6,13.2,17,0.00,,,0.00,VWS V14.00,2013-03-12 16:33:00,
2013-03-12 10:34:00,71.8,24.7,28.06,South,189,8.3,13.2,17,0.00,,,0.00,VWS V14.00,2013-03-12 16:34:00,
2013-03-12 10:36:00,72.7,25.4,28.06,SW,227,6.7,13.2,17,0.00,,,0.00,VWS V14.00,2013-03-12 16:36:00,
2013-03-12 10:39:00,73.8,24.8,28.06,SSW,212,6.3,13.2,16,0.00,,,0.00,VWS V14.00,2013-03-12 16:39:00,
2013-03-12 10:40:00,72.3,25.1,28.06,SSW,211,6.3,13.2,17,0.00,,,0.00,VWS V14.00,2013-03-12 16:40:00,
2013-03-12 10:42:00,75.2,26.0,28.06,SW,228,5.4,13.2,16,0.00,,,0.00,VWS V14.00,2013-03-12 16:42:00,
2013-03-12 10:44:00,76.1,26.7,28.06,SSE,163,5.4,13.2,16,0.00,,,0.00,VWS V14.00,2013-03-12 16:44:00,
2013-03-12 10:45:00,77.0,27.4,28.06,SSW,203,8.3,13.2,16,0.00,,,0.00,VWS V14.00,2013-03-12 16:45:00,
2013-03-12 10:48:00,72.9,25.5,28.09,SSW,196,8.1,12.8,17,0.00,,,0.00,VWS V14.00,2013-03-12 16:48:00,
2013-03-12 10:49:00,74.3,25.2,28.09,South,187,10.1,12.8,16,0.00,,,0.00,VWS V14.00,2013-03-12 16:49:00,
2013-03-12 10:51:00,70.5,23.6,28.09,SSE,163,8.1,15.4,17,0.00,,,0.00,VWS V14.00,2013-03-12 16:51:00,
2013-03-12 10:54:00,71.2,24.2,28.09,SW,214,11.0,15.4,17,0.00,,,0.00,VWS V14.00,2013-03-12 16:54:00,
2013-03-12 10:56:00,72.9,25.5,28.09,South,180,8.1,15.4,17,0.00,,,0.00,VWS V14.00,2013-03-12 16:56:00,
2013-03-12 10:57:00,73.2,25.8,28.09,SSW,194,8.1,15.4,17,0.00,,,0.00,VWS V14.00,2013-03-12 16:57:00,
2013-03-12 11:00:00,77.0,27.4,28.09,South,175,6.3,15.4,16,0.00,,,0.00,VWS V14.00,2013-03-12 17:00:00,
2013-03-12 11:03:00,74.7,25.5,28.09,SSW,195,5.8,13.2,16,0.00,,,0.00,VWS V14.00,2013-03-12 17:03:00,
2013-03-12 11:07:00,74.1,25.1,28.09,SSW,201,8.1,15.0,16,0.00,,,0.00,VWS V14.00,2013-03-12 17:07:00,
2013-03-12 11:09:00,75.9,26.5,28.09,South,185,10.1,15.0,16,0.00,,,0.00,VWS V14.00,2013-03-12 17:09:00,
2013-03-12 11:10:00,75.9,26.5,28.09,SSW,200,7.6,15.0,16,0.00,,,0.00,VWS V14.00,2013-03-12 17:10:00,
2013-03-12 11:11:00,74.1,25.1,28.09,SSW,203,13.2,15.0,16,0.00,,,0.00,VWS V14.00,2013-03-12 17:11:00,
2013-03-12 11:12:00,74.1,25.1,28.09,SSW,205,8.1,15.0,16,0.00,,,0.00,VWS V14.00,2013-03-12 17:12:00,
2013-03-12 11:15:00,75.2,26.0,28.09,South,191,10.1,15.0,16,0.00,,,0.00,VWS V14.00,2013-03-12 17:15:00,
2013-03-12 11:18:00,77.2,27.6,28.09,South,176,11.0,12.8,16,0.00,,,0.00,VWS V14.00,2013-03-12 17:18:00,
2013-03-12 11:19:00,76.3,26.8,28.09,South,174,12.3,13.2,16,0.00,,,0.00,VWS V14.00,2013-03-12 17:19:00,
2013-03-12 11:21:00,75.9,26.5,28.09,SSW,209,7.6,13.2,16,0.00,,,0.00,VWS V14.00,2013-03-12 17:21:00,
2013-03-12 11:23:00,77.9,28.1,28.09,SSW,213,7.6,13.2,16,0.00,,,0.00,VWS V14.00,2013-03-12 17:23:00,
2013-03-12 11:24:00,78.8,27.3,28.09,SE,132,8.7,13.2,15,0.00,,,0.00,VWS V14.00,2013-03-12 17:24:00,
2013-03-12 11:28:00,80.1,28.3,28.09,South,189,6.3,13.2,15,0.00,,,0.00,VWS V14.00,2013-03-12 17:28:00,
2013-03-12 11:29:00,79.3,27.7,28.09,South,176,7.6,13.2,15,0.00,,,0.00,VWS V14.00,2013-03-12 17:29:00,
2013-03-12 11:30:00,78.1,28.3,28.09,SW,214,7.6,11.0,16,0.00,,,0.00,VWS V14.00,2013-03-12 17:30:00,
2013-03-12 11:33:00,79.2,27.6,28.09,SW,219,6.3,13.2,15,0.00,,,0.00,VWS V14.00,2013-03-12 17:33:00,
2013-03-12 11:34:00,80.2,28.4,28.09,South,189,5.4,13.2,15,0.00,,,0.00,VWS V14.00,2013-03-12 17:34:00,
2013-03-12 11:37:00,78.1,28.3,28.09,WSW,239,10.1,15.0,16,0.00,,,0.00,VWS V14.00,2013-03-12 17:37:00,
2013-03-12 11:38:00,78.3,28.4,28.09,SSW,204,10.1,15.0,16,0.00,,,0.00,VWS V14.00,2013-03-12 17:38:00,
2013-03-12 11:40:00,78.8,27.3,28.09,SW,214,6.3,15.0,15,0.00,,,0.00,VWS V14.00,2013-03-12 17:40:00,
2013-03-12 11:43:00,80.1,28.3,28.09,SSW,211,8.7,15.0,15,0.00,,,0.00,VWS V14.00,2013-03-12 17:43:00,
2013-03-12 11:45:00,76.1,26.7,28.09,West,264,7.2,15.0,16,0.00,,,0.00,VWS V14.00,2013-03-12 17:45:00,
2013-03-12 11:46:00,77.0,27.4,28.09,SSW,208,10.5,10.5,16,0.00,,,0.00,VWS V14.00,2013-03-12 17:46:00,
2013-03-12 11:48:00,77.9,28.1,28.12,SSW,203,10.5,12.3,16,0.00,,,0.00,VWS V14.00,2013-03-12 17:48:00,
2013-03-12 11:51:00,77.2,27.6,28.12,SSW,210,6.3,14.5,16,0.00,,,0.00,VWS V14.00,2013-03-12 17:51:00,
2013-03-12 11:53:00,76.5,27.0,28.12,South,176,8.7,14.5,16,0.00,,,0.00,VWS V14.00,2013-03-12 17:53:00,
2013-03-12 11:54:00,76.5,27.0,28.12,SSW,209,8.1,14.5,16,0.00,,,0.00,VWS V14.00,2013-03-12 17:54:00,
2013-03-12 11:56:00,77.9,28.1,28.12,SSW,207,8.1,17.0,16,0.00,,,0.00,VWS V14.00,2013-03-12 17:56:00,
2013-03-12 11:59:00,78.6,28.7,28.12,SW,222,4.0,17.0,16,0.00,,,0.00,VWS V14.00,2013-03-12 17:59:00,
2013-03-12 12:00:00,79.7,28.0,28.12,SSW,208,5.8,17.0,15,0.00,,,0.00,VWS V14.00,2013-03-12 18:00:00,
2013-03-12 12:02:00,77.0,27.4,28.12,SW,217,10.5,13.6,16,0.00,,,0.00,VWS V14.00,2013-03-12 18:02:00,
2013-03-12 12:04:00,79.2,27.6,28.12,South,171,7.2,13.6,15,0.00,,,0.00,VWS V14.00,2013-03-12 18:04:00,
2013-03-12 12:05:00,79.0,27.4,28.12,SW,218,10.1,13.6,15,0.00,,,0.00,VWS V14.00,2013-03-12 18:05:00,
2013-03-12 12:07:00,80.4,28.6,28.12,WSW,238,6.3,13.6,15,0.00,,,0.00,VWS V14.00,2013-03-12 18:07:00,
2013-03-12 12:09:00,79.2,27.6,28.12,SW,222,4.0,14.5,15,0.00,,,0.00,VWS V14.00,2013-03-12 18:09:00,
2013-03-12 12:10:00,80.1,28.3,28.12,West,267,8.3,14.5,15,0.00,,,0.00,VWS V14.00,2013-03-12 18:10:00,
2013-03-12 12:11:00,80.1,28.3,28.12,West,267,5.8,14.5,15,0.00,,,0.00,VWS V14.00,2013-03-12 18:11:00,
2013-03-12 12:12:00,81.1,29.1,28.12,SW,220,6.7,14.5,15,0.00,,,0.00,VWS V14.00,2013-03-12 18:12:00,
2013-03-12 12:15:00,81.3,29.3,28.12,SW,224,5.4,14.5,15,0.00,,,0.00,VWS V14.00,2013-03-12 18:15:00,
2013-03-12 12:16:00,80.1,28.3,28.12,SSW,207,9.6,9.6,15,0.00,,,0.00,VWS V14.00,2013-03-12 18:16:00,
2013-03-12 12:17:00,79.3,27.7,28.12,SW,226,10.5,12.3,15,0.00,,,0.00,VWS V14.00,2013-03-12 18:17:00,
2013-03-12 12:18:00,79.3,27.7,28.12,SW,219,12.8,12.8,15,0.00,,,0.00,VWS V14.00,2013-03-12 18:18:00,
2013-03-12 12:20:00,79.5,27.9,28.12,SSW,197,10.1,12.8,15,0.00,,,0.00,VWS V14.00,2013-03-12 18:20:00,
2013-03-12 12:21:00,79.5,27.9,28.12,WNW,288,8.1,12.8,15,0.00,,,0.00,VWS V14.00,2013-03-12 18:21:00,
2013-03-12 12:23:00,79.5,27.9,28.12,SSW,212,15.4,15.4,15,0.00,,,0.00,VWS V14.00,2013-03-12 18:23:00,
2013-03-12 12:24:00,77.2,27.6,28.12,SSW,205,8.1,15.4,16,0.00,,,0.00,VWS V14.00,2013-03-12 18:24:00,
2013-03-12 12:25:00,76.1,26.7,28.12,SSW,210,17.9,17.9,16,0.00,,,0.00,VWS V14.00,2013-03-12 18:25:00,
2013-03-12 12:28:00,76.8,27.3,28.12,SSW,207,7.6,17.9,16,0.00,,,0.00,VWS V14.00,2013-03-12 18:28:00,
2013-03-12 12:29:00,76.8,27.3,28.12,SSW,205,8.1,17.9,16,0.00,,,0.00,VWS V14.00,2013-03-12 18:29:00,
2013-03-12 12:32:00,75.9,26.5,28.12,SSW,209,9.2,17.0,16,0.00,,,0.00,VWS V14.00,2013-03-12 18:32:00,
2013-03-12 12:33:00,76.8,27.3,28.12,SW,224,11.9,17.0,16,0.00,,,0.00,VWS V14.00,2013-03-12 18:33:00,
2013-03-12 12:34:00,77.2,27.6,28.12,South,173,11.4,17.0,16,0.00,,,0.00,VWS V14.00,2013-03-12 18:34:00,
2013-03-12 12:35:00,77.2,27.6,28.12,South,182,12.8,17.0,16,0.00,,,0.00,VWS V14.00,2013-03-12 18:35:00,
2013-03-12 12:39:00,77.4,27.7,28.12,South,181,8.3,17.0,16,0.00,,,0.00,VWS V14.00,2013-03-12 18:39:00,
2013-03-12 12:40:00,77.7,28.0,28.12,SSW,202,15.4,17.0,16,0.00,,,0.00,VWS V14.00,2013-03-12 18:40:00,
2013-03-12 12:45:00,79.2,27.6,28.12,SSW,208,8.1,17.0,15,0.00,,,0.00,VWS V14.00,2013-03-12 18:45:00,
2013-03-12 12:46:00,79.0,27.4,28.12,South,176,10.5,11.9,15,0.00,,,0.00,VWS V14.00,2013-03-12 18:46:00,
2013-03-12 12:47:00,79.2,27.6,28.12,SSW,207,15.0,15.0,15,0.00,,,0.00,VWS V14.00,2013-03-12 18:47:00,
2013-03-12 12:50:00,78.3,28.4,28.12,South,191,7.6,15.4,16,0.00,,,0.00,VWS V14.00,2013-03-12 18:50:00,
2013-03-12 12:51:00,78.8,27.3,28.12,South,176,11.0,15.4,15,0.00,,,0.00,VWS V14.00,2013-03-12 18:51:00,
2013-03-12 12:52:00,78.6,28.7,28.12,SSW,197,10.5,15.4,16,0.00,,,0.00,VWS V14.00,2013-03-12 18:52:00,
2013-03-12 12:53:00,78.4,28.6,28.12,South,191,10.5,15.4,16,0.00,,,0.00,VWS V14.00,2013-03-12 18:53:00,
2013-03-12 12:55:00,78.8,27.3,28.12,SSW,195,8.7,15.4,15,0.00,,,0.00,VWS V14.00,2013-03-12 18:55:00,
2013-03-12 12:57:00,78.6,28.7,28.12,South,182,12.3,15.4,16,0.00,,,0.00,VWS V14.00,2013-03-12 18:57:00,
2013-03-12 12:59:00,79.7,28.0,28.12,SSW,195,15.0,16.8,15,0.00,,,0.00,VWS V14.00,2013-03-12 18:59:00,
2013-03-12 13:01:00,77.7,28.0,28.12,SSW,196,11.0,12.3,16,0.00,,,0.00,VWS V14.00,2013-03-12 19:01:00,
2013-03-12 13:02:00,78.8,27.3,28.12,SW,228,9.6,12.3,15,0.00,,,0.00,VWS V14.00,2013-03-12 19:02:00,
2013-03-12 13:04:00,77.9,28.1,28.12,South,181,8.3,13.2,16,0.00,,,0.00,VWS V14.00,2013-03-12 19:04:00,
2013-03-12 13:07:00,76.6,27.1,28.12,SSW,193,10.5,15.0,16,0.00,,,0.00,VWS V14.00,2013-03-12 19:07:00,
2013-03-12 13:08:00,76.6,27.1,28.12,SSW,196,10.1,15.0,16,0.00,,,0.00,VWS V14.00,2013-03-12 19:08:00,
2013-03-12 13:11:00,77.4,27.7,28.12,SSE,160,8.1,15.0,16,0.00,,,0.00,VWS V14.00,2013-03-12 19:11:00,
2013-03-12 13:12:00,77.4,27.7,28.12,South,171,7.6,15.0,16,0.00,,,0.00,VWS V14.00,2013-03-12 19:12:00,
2013-03-12 13:13:00,77.5,27.9,28.12,South,184,8.3,15.0,16,0.00,,,0.00,VWS V14.00,2013-03-12 19:13:00,
2013-03-12 13:17:00,77.5,27.9,28.12,SSW,207,15.0,15.0,16,0.00,,,0.00,VWS V14.00,2013-03-12 19:17:00,
2013-03-12 13:18:00,77.5,27.9,28.12,SW,224,5.8,15.0,16,0.00,,,0.00,VWS V14.00,2013-03-12 19:18:00,
2013-03-12 13:19:00,78.1,28.3,28.12,SSW,213,12.3,15.0,16,0.00,,,0.00,VWS V14.00,2013-03-12 19:19:00,
2013-03-12 13:22:00,77.7,28.0,28.12,South,183,8.3,15.0,16,0.00,,,0.00,VWS V14.00,2013-03-12 19:22:00,
2013-03-12 13:23:00,77.2,27.6,28.12,SSW,207,10.1,15.0,16,0.00,,,0.00,VWS V14.00,2013-03-12 19:23:00,
2013-03-12 13:24:00,77.0,27.4,28.12,SSW,207,5.8,15.0,16,0.00,,,0.00,VWS V14.00,2013-03-12 19:24:00,
2013-03-12 13:28:00,77.7,28.0,28.12,South,177,12.8,15.0,16,0.00,,,0.00,VWS V14.00,2013-03-12 19:28:00,
2013-03-12 13:29:00,77.7,28.0,28.12,SSW,194,8.3,15.0,16,0.00,,,0.00,VWS V14.00,2013-03-12 19:29:00,
2013-03-12 13:30:00,77.5,27.9,28.12,SSW,193,12.8,15.0,16,0.00,,,0.00,VWS V14.00,2013-03-12 19:30:00,
2013-03-12 13:33:00,77.5,27.9,28.15,South,188,14.1,15.0,16,0.00,,,0.00,VWS V14.00,2013-03-12 19:33:00,
2013-03-12 13:34:00,77.4,27.7,28.15,SSW,198,8.1,15.0,16,0.00,,,0.00,VWS V14.00,2013-03-12 19:34:00,
2013-03-12 13:35:00,78.4,28.6,28.15,SSW,199,8.7,15.0,16,0.00,,,0.00,VWS V14.00,2013-03-12 19:35:00,
2013-03-12 13:38:00,78.6,28.7,28.15,SW,215,11.0,17.4,16,0.00,,,0.00,VWS V14.00,2013-03-12 19:38:00,
2013-03-12 13:39:00,79.3,27.7,28.15,SSW,202,8.3,17.4,15,0.00,,,0.00,VWS V14.00,2013-03-12 19:39:00,
2013-03-12 13:40:00,79.5,27.9,28.15,SW,234,6.3,17.4,15,0.00,,,0.00,VWS V14.00,2013-03-12 19:40:00,
2013-03-12 13:41:00,81.0,29.0,28.15,SW,218,6.3,17.4,15,0.00,,,0.00,VWS V14.00,2013-03-12 19:41:00,
2013-03-12 13:44:00,81.5,29.4,28.15,South,190,7.6,17.4,15,0.00,,,0.00,VWS V14.00,2013-03-12 19:44:00,
2013-03-12 13:45:00,81.5,29.4,28.15,South,183,10.1,17.4,15,0.00,,,0.00,VWS V14.00,2013-03-12 19:45:00,
2013-03-12 13:47:00,80.6,28.7,28.15,SW,217,10.1,12.8,15,0.00,,,0.00,VWS V14.00,2013-03-12 19:47:00,
2013-03-12 13:50:00,80.6,28.7,28.15,SSW,205,11.0,13.2,15,0.00,,,0.00,VWS V14.00,2013-03-12 19:50:00,
2013-03-12 13:51:00,80.6,28.7,28.15,SSW,195,14.1,14.1,15,0.00,,,0.00,VWS V14.00,2013-03-12 19:51:00,
2013-03-12 13:53:00,80.6,28.7,28.15,SSW,197,8.3,14.1,15,0.00,,,0.00,VWS V14.00,2013-03-12 19:53:00,
2013-03-12 13:55:00,80.1,28.3,28.15,SSW,208,10.5,14.1,15,0.00,,,0.00,VWS V14.00,2013-03-12 19:55:00,
2013-03-12 13:56:00,80.1,28.3,28.15,SW,216,11.0,14.1,15,0.00,,,0.00,VWS V14.00,2013-03-12 19:56:00,
2013-03-12 14:01:00,82.6,28.6,28.15,SSW,209,8.7,8.7,14,0.00,,,0.00,VWS V14.00,2013-03-12 20:01:00,
2013-03-12 14:02:00,82.6,28.6,28.15,SSW,195,10.5,11.0,14,0.00,,,0.00,VWS V14.00,2013-03-12 20:02:00,
2013-03-12 14:07:00,82.6,28.6,28.15,South,191,7.2,11.0,14,0.00,,,0.00,VWS V14.00,2013-03-12 20:07:00,
2013-03-12 14:08:00,82.6,28.6,28.15,SSW,209,5.4,11.0,14,0.00,,,0.00,VWS V14.00,2013-03-12 20:08:00,
2013-03-12 14:12:00,82.6,28.6,28.15,SSE,168,8.7,14.1,14,0.00,,,0.00,VWS V14.00,2013-03-12 20:12:00,
2013-03-12 14:13:00,82.6,28.6,28.15,South,176,8.1,14.1,14,0.00,,,0.00,VWS V14.00,2013-03-12 20:13:00,
2013-03-12 14:14:00,82.6,28.6,28.15,SSE,148,10.5,14.1,14,0.00,,,0.00,VWS V14.00,2013-03-12 20:14:00,
2013-03-12 14:17:00,82.6,28.6,28.15,WSW,256,6.3,11.0,14,0.00,,,0.00,VWS V14.00,2013-03-12 20:17:00,
2013-03-12 14:18:00,84.9,30.5,28.15,SW,223,4.0,11.0,14,0.00,,,0.00,VWS V14.00,2013-03-12 20:18:00,
2013-03-12 14:19:00,86.7,31.9,28.15,SW,219,4.0,11.0,14,0.00,,,0.00,VWS V14.00,2013-03-12 20:19:00,
2013-03-12 14:23:00,85.8,31.2,28.15,SSE,163,8.3,11.0,14,0.00,,,0.00,VWS V14.00,2013-03-12 20:23:00,
2013-03-12 14:24:00,86.7,31.9,28.15,South,189,7.6,11.0,14,0.00,,,0.00,VWS V14.00,2013-03-12 20:24:00,
2013-03-12 14:25:00,82.8,28.8,28.15,South,183,10.5,11.0,14,0.00,,,0.00,VWS V14.00,2013-03-12 20:25:00,
2013-03-12 14:29:00,83.1,29.0,28.15,SW,227,8.3,14.5,14,0.00,,,0.00,VWS V14.00,2013-03-12 20:29:00,
2013-03-12 14:30:00,84.6,30.2,28.15,SSW,201,5.4,14.5,14,0.00,,,0.00,VWS V14.00,2013-03-12 20:30:00,
2013-03-12 14:34:00,84.6,30.2,28.15,SSW,200,6.3,12.3,14,0.00,,,0.00,VWS V14.00,2013-03-12 20:34:00,
2013-03-12 14:35:00,84.7,30.3,28.15,South,176,10.1,12.3,14,0.00,,,0.00,VWS V14.00,2013-03-12 20:35:00,
2013-03-12 14:36:00,84.0,29.8,28.15,South,185,7.6,12.3,14,0.00,,,0.00,VWS V14.00,2013-03-12 20:36:00,
2013-03-12 14:38:00,86.7,31.9,28.15,SSW,203,5.8,12.3,14,0.00,,,0.00,VWS V14.00,2013-03-12 20:38:00,
2013-03-12 14:40:00,86.0,31.3,28.15,SSW,198,5.8,12.3,14,0.00,,,0.00,VWS V14.00,2013-03-12 20:40:00,
2013-03-12 14:42:00,84.4,30.0,28.15,SW,214,10.5,14.5,14,0.00,,,0.00,VWS V14.00,2013-03-12 20:42:00,
2013-03-12 14:43:00,84.4,30.0,28.15,South,189,8.7,14.5,14,0.00,,,0.00,VWS V14.00,2013-03-12 20:43:00,
2013-03-12 14:45:00,84.4,30.0,28.15,South,188,8.1,14.5,14,0.00,,,0.00,VWS V14.00,2013-03-12 20:45:00,
2013-03-12 14:47:00,84.4,30.0,28.15,SSW,202,8.7,10.5,14,0.00,,,0.00,VWS V14.00,2013-03-12 20:47:00,
2013-03-12 14:48:00,84.4,30.0,28.15,South,176,8.3,10.5,14,0.00,,,0.00,VWS V14.00,2013-03-12 20:48:00,
2013-03-12 14:49:00,84.4,30.0,28.15,SSE,164,5.8,10.5,14,0.00,,,0.00,VWS V14.00,2013-03-12 20:49:00,
2013-03-12 14:50:00,84.4,30.0,28.15,South,170,6.3,10.5,14,0.00,,,0.00,VWS V14.00,2013-03-12 20:50:00,
2013-03-12 14:53:00,85.1,30.6,28.15,SSW,212,5.8,10.5,14,0.00,,,0.00,VWS V14.00,2013-03-12 20:53:00,
2013-03-12 14:55:00,85.8,31.2,28.15,SW,217,5.4,11.0,14,0.00,,,0.00,VWS V14.00,2013-03-12 20:55:00,
2013-03-12 14:57:00,85.1,30.6,28.15,South,181,10.1,13.2,14,0.00,,,0.00,VWS V14.00,2013-03-12 20:57:00,
2013-03-12 14:58:00,82.6,28.6,28.15,South,178,11.0,13.2,14,0.00,,,0.00,VWS V14.00,2013-03-12 20:58:00,
2013-03-12 14:59:00,82.6,28.6,28.15,SSW,192,8.3,13.2,14,0.00,,,0.00,VWS V14.00,2013-03-12 20:59:00,
2013-03-12 15:00:00,84.0,29.8,28.15,South,188,5.4,7.6,14,0.00,,,0.00,VWS V14.00,2013-03-12 21:00:00,
2013-03-12 15:02:00,83.7,29.5,28.15,South,177,9.6,10.1,14,0.00,,,0.00,VWS V14.00,2013-03-12 21:02:00,
2013-03-12 15:04:00,86.2,31.5,28.15,South,190,5.8,10.1,14,0.00,,,0.00,VWS V14.00,2013-03-12 21:04:00,
2013-03-12 15:05:00,86.0,31.3,28.15,SSW,208,11.9,11.9,14,0.00,,,0.00,VWS V14.00,2013-03-12 21:05:00,
2013-03-12 15:08:00,86.7,31.9,28.15,South,180,5.8,12.3,14,0.00,,,0.00,VWS V14.00,2013-03-12 21:08:00,
2013-03-12 15:09:00,86.2,31.5,28.15,SW,219,6.3,12.3,14,0.00,,,0.00,VWS V14.00,2013-03-12 21:09:00,
2013-03-12 15:10:00,87.1,32.2,28.15,SSW,205,4.9,12.3,14,0.00,,,0.00,VWS V14.00,2013-03-12 21:10:00,
2013-03-12 15:11:00,87.6,32.6,28.15,SSW,200,4.9,12.3,14,0.00,,,0.00,VWS V14.00,2013-03-12 21:11:00,
2013-03-12 15:14:00,86.0,31.3,28.15,SSW,194,10.1,12.3,14,0.00,,,0.00,VWS V14.00,2013-03-12 21:14:00,
2013-03-12 15:15:00,84.0,29.8,28.15,South,189,13.6,13.6,14,0.00,,,0.00,VWS V14.00,2013-03-12 21:15:00,
2013-03-12 15:17:00,86.5,31.7,28.15,South,182,6.3,11.0,14,0.00,,,0.00,VWS V14.00,2013-03-12 21:17:00,
2013-03-12 15:19:00,85.8,31.2,28.15,WSW,251,5.8,14.5,14,0.00,,,0.00,VWS V14.00,2013-03-12 21:19:00,
2013-03-12 15:21:00,88.3,31.3,28.15,SW,226,6.3,14.5,13,0.00,,,0.00,VWS V14.00,2013-03-12 21:21:00,
2013-03-12 15:22:00,87.6,32.6,28.15,SSW,198,11.0,14.5,14,0.00,,,0.00,VWS V14.00,2013-03-12 21:22:00,
2013-03-12 15:25:00,86.4,31.6,28.15,SSW,196,8.3,14.5,14,0.00,,,0.00,VWS V14.00,2013-03-12 21:25:00,
2013-03-12 15:27:00,86.4,31.6,28.15,SW,214,10.1,14.5,14,0.00,,,0.00,VWS V14.00,2013-03-12 21:27:00,
2013-03-12 15:29:00,89.4,32.2,28.15,SW,231,7.6,14.5,13,0.00,,,0.00,VWS V14.00,2013-03-12 21:29:00,
2013-03-12 15:30:00,88.7,31.6,28.15,SW,226,10.5,14.5,13,0.00,,,0.00,VWS V14.00,2013-03-12 21:30:00,
2013-03-12 15:33:00,85.5,30.9,28.15,SW,229,5.8,10.5,14,0.00,,,0.00,VWS V14.00,2013-03-12 21:33:00,
2013-03-12 15:34:00,84.6,30.2,28.15,SSW,197,10.5,13.2,14,0.00,,,0.00,VWS V14.00,2013-03-12 21:34:00,
2013-03-12 15:36:00,84.9,30.5,28.15,South,186,5.8,13.2,14,0.00,,,0.00,VWS V14.00,2013-03-12 21:36:00,
2013-03-12 15:38:00,84.4,30.0,28.15,South,181,6.3,13.2,14,0.00,,,0.00,VWS V14.00,2013-03-12 21:38:00,
2013-03-12 15:39:00,84.7,30.3,28.15,South,171,6.3,13.2,14,0.00,,,0.00,VWS V14.00,2013-03-12 21:39:00,
2013-03-12 15:41:00,85.6,31.0,28.15,SSW,206,5.4,13.2,14,0.00,,,0.00,VWS V14.00,2013-03-12 21:41:00,
2013-03-12 15:43:00,85.1,30.6,28.15,SSW,195,5.8,13.2,14,0.00,,,0.00,VWS V14.00,2013-03-12 21:43:00,
2013-03-12 15:45:00,86.0,31.3,28.15,SSW,209,5.8,13.2,14,0.00,,,0.00,VWS V14.00,2013-03-12 21:45:00,
2013-03-12 15:47:00,85.3,30.7,28.15,SSW,211,7.6,10.1,14,0.00,,,0.00,VWS V14.00,2013-03-12 21:47:00,
2013-03-12 15:49:00,86.9,32.0,28.15,SSW,192,5.4,10.1,14,0.00,,,0.00,VWS V14.00,2013-03-12 21:49:00,
2013-03-12 15:50:00,85.5,30.9,28.15,South,187,8.3,10.5,14,0.00,,,0.00,VWS V14.00,2013-03-12 21:50:00,
2013-03-12 15:52:00,85.1,30.6,28.15,SSE,156,6.3,10.5,14,0.00,,,0.00,VWS V14.00,2013-03-12 21:52:00,
2013-03-12 15:55:00,86.0,31.3,28.15,South,189,5.8,11.0,14,0.00,,,0.00,VWS V14.00,2013-03-12 21:55:00,
2013-03-12 15:57:00,84.0,29.8,28.15,South,178,10.1,11.0,14,0.00,,,0.00,VWS V14.00,2013-03-12 21:57:00,
2013-03-12 15:58:00,83.7,29.5,28.15,South,183,8.1,11.0,14,0.00,,,0.00,VWS V14.00,2013-03-12 21:58:00,
2013-03-12 16:00:00,86.2,31.5,28.15,WSW,251,2.7,5.8,14,0.00,,,0.00,VWS V14.00,2013-03-12 22:00:00,
2013-03-12 16:01:00,87.1,32.2,28.15,SSW,194,4.9,5.8,14,0.00,,,0.00,VWS V14.00,2013-03-12 22:01:00,
2013-03-12 16:03:00,84.4,30.0,28.15,South,191,10.1,13.2,14,0.00,,,0.00,VWS V14.00,2013-03-12 22:03:00,
2013-03-12 16:04:00,86.2,31.5,28.15,SSW,198,10.1,13.2,14,0.00,,,0.00,VWS V14.00,2013-03-12 22:04:00,
2013-03-12 16:06:00,85.5,30.9,28.15,South,186,10.5,13.2,14,0.00,,,0.00,VWS V14.00,2013-03-12 22:06:00,
2013-03-12 16:08:00,85.8,31.2,28.15,SSW,198,8.1,13.2,14,0.00,,,0.00,VWS V14.00,2013-03-12 22:08:00,
2013-03-12 16:09:00,85.3,30.7,28.15,SSW,192,8.3,13.2,14,0.00,,,0.00,VWS V14.00,2013-03-12 22:09:00,
2013-03-12 16:11:00,84.7,30.3,28.15,SSW,205,8.7,13.2,14,0.00,,,0.00,VWS V14.00,2013-03-12 22:11:00,
2013-03-12 16:12:00,85.1,30.6,28.15,South,178,6.3,13.2,14,0.00,,,0.00,VWS V14.00,2013-03-12 22:12:00,
2013-03-12 16:15:00,85.1,30.6,28.15,South,183,4.0,13.2,14,0.00,,,0.00,VWS V14.00,2013-03-12 22:15:00,
2013-03-12 16:16:00,85.8,31.2,28.15,SE,138,4.9,6.3,14,0.00,,,0.00,VWS V14.00,2013-03-12 22:16:00,
2013-03-12 16:17:00,84.4,30.0,28.15,SSW,196,8.7,10.1,14,0.00,,,0.00,VWS V14.00,2013-03-12 22:17:00,
2013-03-12 16:18:00,84.4,30.0,28.15,SSW,192,8.7,10.1,14,0.00,,,0.00,VWS V14.00,2013-03-12 22:18:00,
2013-03-12 16:20:00,84.2,29.9,28.15,SSW,211,7.2,10.1,14,0.00,,,0.00,VWS V14.00,2013-03-12 22:20:00,
2013-03-12 16:23:00,86.0,31.3,28.15,SSW,208,6.3,10.1,14,0.00,,,0.00,VWS V14.00,2013-03-12 22:23:00,
2013-03-12 16:25:00,83.3,29.2,28.15,South,181,8.7,12.3,14,0.00,,,0.00,VWS V14.00,2013-03-12 22:25:00,
2013-03-12 16:28:00,84.0,29.8,28.15,SSW,201,5.8,12.3,14,0.00,,,0.00,VWS V14.00,2013-03-12 22:28:00,
2013-03-12 16:30:00,84.6,30.2,28.15,SSE,166,4.9,7.6,14,0.00,,,0.00,VWS V14.00,2013-03-12 22:30:00,
2013-03-12 16:33:00,86.0,31.3,28.15,SSE,168,2.7,7.6,14,0.00,,,0.00,VWS V14.00,2013-03-12 22:33:00,
2013-03-12 16:34:00,86.9,32.0,28.15,South,191,4.0,7.6,14,0.00,,,0.00,VWS V14.00,2013-03-12 22:34:00,
2013-03-12 16:36:00,86.0,31.3,28.15,South,182,5.8,8.3,14,0.00,,,0.00,VWS V14.00,2013-03-12 22:36:00,
2013-03-12 16:38:00,84.4,30.0,28.15,South,177,6.3,8.7,14,0.00,,,0.00,VWS V14.00,2013-03-12 22:38:00,
2013-03-12 16:39:00,85.6,31.0,28.15,South,179,6.3,8.7,14,0.00,,,0.00,VWS V14.00,2013-03-12 22:39:00,
2013-03-12 16:43:00,85.3,30.7,28.15,SSW,197,6.3,8.7,14,0.00,,,0.00,VWS V14.00,2013-03-12 22:43:00,
2013-03-12 16:45:00,83.7,29.5,28.15,South,181,8.3,10.5,14,0.00,,,0.00,VWS V14.00,2013-03-12 22:45:00,
2013-03-12 16:48:00,83.1,29.0,28.15,South,186,10.1,13.2,14,0.00,,,0.00,VWS V14.00,2013-03-12 22:48:00,
2013-03-12 16:50:00,82.8,28.8,28.15,South,180,7.6,13.2,14,0.00,,,0.00,VWS V14.00,2013-03-12 22:50:00,
2013-03-12 16:51:00,82.4,28.5,28.15,SSW,195,7.6,13.2,14,0.00,,,0.00,VWS V14.00,2013-03-12 22:51:00,
2013-03-12 16:54:00,80.2,28.4,28.15,South,185,8.1,13.2,15,0.00,,,0.00,VWS V14.00,2013-03-12 22:54:00,
2013-03-12 16:55:00,80.4,28.6,28.15,South,169,4.9,13.2,15,0.00,,,0.00,VWS V14.00,2013-03-12 22:55:00,
2013-03-12 16:58:00,79.5,27.9,28.15,South,182,6.3,13.2,15,0.00,,,0.00,VWS V14.00,2013-03-12 22:58:00,
2013-03-12 16:59:00,79.3,27.7,28.15,South,177,5.4,13.2,15,0.00,,,0.00,VWS V14.00,2013-03-12 22:59:00,
2013-03-12 17:00:00,79.3,27.7,28.15,South,189,4.0,13.2,15,0.00,,,0.00,VWS V14.00,2013-03-12 23:00:00,
2013-03-12 17:02:00,79.2,27.6,28.15,South,180,3.6,4.0,15,0.00,,,0.00,VWS V14.00,2013-03-12 23:02:00,
2013-03-12 17:04:00,79.0,27.4,28.15,SSE,165,8.1,8.3,15,0.00,,,0.00,VWS V14.00,2013-03-12 23:04:00,
2013-03-12 17:05:00,79.0,27.4,28.15,SSW,200,7.2,8.3,15,0.00,,,0.00,VWS V14.00,2013-03-12 23:05:00,
2013-03-12 17:08:00,78.8,27.3,28.15,South,188,5.4,10.5,15,0.00,,,0.00,VWS V14.00,2013-03-12 23:08:00,
2013-03-12 17:10:00,78.8,27.3,28.15,South,172,2.7,10.5,15,0.00,,,0.00,VWS V14.00,2013-03-12 23:10:00,
2013-03-12 17:13:00,78.6,28.7,28.15,South,183,6.3,10.5,16,0.00,,,0.00,VWS V14.00,2013-03-12 23:13:00,
2013-03-12 17:15:00,78.6,28.7,28.15,South,172,5.8,10.5,16,0.00,,,0.00,VWS V14.00,2013-03-12 23:15:00,
2013-03-12 17:16:00,78.6,28.7,28.15,SSW,209,4.0,7.2,16,0.00,,,0.00,VWS V14.00,2013-03-12 23:16:00,
2013-03-12 17:19:00,78.6,28.7,28.15,SSW,204,4.9,9.6,16,0.00,,,0.00,VWS V14.00,2013-03-12 23:19:00,
2013-03-12 17:20:00,78.4,28.6,28.15,South,178,6.3,9.6,16,0.00,,,0.00,VWS V14.00,2013-03-12 23:20:00,
2013-03-12 17:22:00,78.3,28.4,28.15,South,179,6.3,9.6,16,0.00,,,0.00,VWS V14.00,2013-03-12 23:22:00,
2013-03-12 17:24:00,78.6,28.7,28.15,South,181,3.6,9.6,16,0.00,,,0.00,VWS V14.00,2013-03-12 23:24:00,
2013-03-12 17:27:00,78.4,28.6,28.15,SSW,198,5.8,9.6,16,0.00,,,0.00,VWS V14.00,2013-03-12 23:27:00,
2013-03-12 17:28:00,78.3,28.4,28.15,South,172,6.7,9.6,16,0.00,,,0.00,VWS V14.00,2013-03-12 23:28:00,
2013-03-12 17:29:00,78.3,28.4,28.15,South,187,5.8,9.6,16,0.00,,,0.00,VWS V14.00,2013-03-12 23:29:00,
2013-03-12 17:30:00,78.3,28.4,28.15,SSE,166,5.4,9.6,16,0.00,,,0.00,VWS V14.00,2013-03-12 23:30:00,
2013-03-12 17:33:00,78.3,28.4,28.15,South,180,8.3,9.2,16,0.00,,,0.00,VWS V14.00,2013-03-12 23:33:00,
2013-03-12 17:35:00,78.1,28.3,28.15,South,190,8.1,9.2,16,0.00,,,0.00,VWS V14.00,2013-03-12 23:35:00,
2013-03-12 17:38:00,77.9,28.1,28.15,South,184,6.3,9.2,16,0.00,,,0.00,VWS V14.00,2013-03-12 23:38:00,
2013-03-12 17:40:00,77.9,28.1,28.15,SSW,194,4.9,9.2,16,0.00,,,0.00,VWS V14.00,2013-03-12 23:40:00,
2013-03-12 17:41:00,77.9,28.1,28.15,South,176,7.6,9.2,16,0.00,,,0.00,VWS V14.00,2013-03-12 23:41:00,
2013-03-12 17:43:00,77.9,28.1,28.15,South,169,5.4,9.2,16,0.00,,,0.00,VWS V14.00,2013-03-12 23:43:00,
2013-03-12 17:48:00,77.4,27.7,28.15,South,185,5.4,8.7,16,0.00,,,0.00,VWS V14.00,2013-03-12 23:48:00,
2013-03-12 17:49:00,77.4,27.7,28.15,South,175,5.4,8.7,16,0.00,,,0.00,VWS V14.00,2013-03-12 23:49:00,
2013-03-12 17:50:00,77.4,27.7,28.15,South,186,5.4,8.7,16,0.00,,,0.00,VWS V14.00,2013-03-12 23:50:00,
2013-03-12 17:53:00,77.4,27.7,28.15,South,188,7.6,8.7,16,0.00,,,0.00,VWS V14.00,2013-03-12 23:53:00,
2013-03-12 17:54:00,77.0,27.4,28.15,South,191,5.8,8.7,16,0.00,,,0.00,VWS V14.00,2013-03-12 23:54:00,
2013-03-12 17:55:00,77.0,27.4,28.15,South,183,5.8,8.7,16,0.00,,,0.00,VWS V14.00,2013-03-12 23:55:00,
2013-03-12 17:58:00,76.6,27.1,28.15,South,174,4.0,8.7,16,0.00,,,0.00,VWS V14.00,2013-03-12 23:58:00,
2013-03-12 17:59:00,76.6,27.1,28.15,South,179,4.9,8.7,16,0.00,,,0.00,VWS V14.00,2013-03-12 23:59:00,
2013-03-12 18:00:00,76.6,27.1,28.15,SSW,198,6.7,8.7,16,0.00,,,0.00,VWS V14.00,2013-03-13 00:00:00,
2013-03-12 18:03:00,76.5,27.0,28.15,South,169,5.8,12.8,16,0.00,,,0.00,VWS V14.00,2013-03-13 00:03:00,
2013-03-12 18:05:00,76.6,27.1,28.15,South,190,8.3,12.8,16,0.00,,,0.00,VWS V14.00,2013-03-13 00:05:00,
2013-03-12 18:06:00,76.6,27.1,28.15,South,191,7.6,12.8,16,0.00,,,0.00,VWS V14.00,2013-03-13 00:06:00,
2013-03-12 18:09:00,75.9,26.5,28.15,South,186,6.3,12.8,16,0.00,,,0.00,VWS V14.00,2013-03-13 00:09:00,
2013-03-12 18:10:00,76.1,26.7,28.15,SSW,194,8.7,12.8,16,0.00,,,0.00,VWS V14.00,2013-03-13 00:10:00,
2013-03-12 18:11:00,76.1,26.7,28.15,SSE,164,7.6,12.8,16,0.00,,,0.00,VWS V14.00,2013-03-13 00:11:00,
2013-03-12 18:14:00,75.9,26.5,28.15,South,170,5.4,12.8,16,0.00,,,0.00,VWS V14.00,2013-03-13 00:14:00,
2013-03-12 18:15:00,75.9,26.5,28.15,South,177,6.3,12.8,16,0.00,,,0.00,VWS V14.00,2013-03-13 00:15:00,
2013-03-12 18:17:00,75.2,26.0,28.15,South,182,2.7,6.3,16,0.00,,,0.00,VWS V14.00,2013-03-13 00:17:00,
2013-03-12 18:20:00,74.5,25.4,28.17,SSW,202,3.1,6.3,16,0.00,,,0.00,VWS V14.00,2013-03-13 00:20:00,
2013-03-12 18:24:00,73.6,24.7,28.17,South,178,4.0,6.3,16,0.00,,,0.00,VWS V14.00,2013-03-13 00:24:00,
2013-03-12 18:25:00,73.4,24.5,28.17,South,181,4.0,6.3,16,0.00,,,0.00,VWS V14.00,2013-03-13 00:25:00,
2013-03-12 18:30:00,72.9,25.5,28.17,South,174,3.1,6.3,17,0.00,,,0.00,VWS V14.00,2013-03-13 00:30:00,
2013-03-12 18:31:00,72.3,25.1,28.17,South,175,2.7,3.6,17,0.00,,,0.00,VWS V14.00,2013-03-13 00:31:00,
2013-03-12 18:33:00,72.1,25.0,28.17,South,175,0.0,4.9,17,0.00,,,0.00,VWS V14.00,2013-03-13 00:33:00,
2013-03-12 18:35:00,71.6,24.5,28.17,South,191,4.0,4.9,17,0.00,,,0.00,VWS V14.00,2013-03-13 00:35:00,
2013-03-12 18:37:00,71.4,24.4,28.17,South,191,3.1,4.9,17,0.00,,,0.00,VWS V14.00,2013-03-13 00:37:00,
2013-03-12 18:38:00,71.2,24.2,28.17,South,191,2.7,4.9,17,0.00,,,0.00,VWS V14.00,2013-03-13 00:38:00,
2013-03-12 18:41:00,70.5,23.6,28.17,SSW,198,0.0,4.9,17,0.00,,,0.00,VWS V14.00,2013-03-13 00:41:00,
2013-03-12 18:43:00,69.8,23.1,28.17,WNW,292,4.0,5.4,17,0.00,,,0.00,VWS V14.00,2013-03-13 00:43:00,
2013-03-12 18:44:00,69.8,23.1,28.17,WNW,292,4.0,5.4,17,0.00,,,0.00,VWS V14.00,2013-03-13 00:44:00,
2013-03-12 18:46:00,69.3,24.0,28.17,WNW,292,2.2,4.0,18,0.00,,,0.00,VWS V14.00,2013-03-13 00:46:00,
2013-03-12 18:49:00,68.7,23.5,28.20,WNW,301,7.2,7.2,18,0.00,,,0.00,VWS V14.00,2013-03-13 00:49:00,
2013-03-12 18:50:00,69.8,23.1,28.20,WSW,254,8.3,8.7,17,0.00,,,0.00,VWS V14.00,2013-03-13 00:50:00,
2013-03-12 18:51:00,70.3,23.5,28.20,WNW,295,4.0,8.7,17,0.00,,,0.00,VWS V14.00,2013-03-13 00:51:00,
2013-03-12 18:52:00,71.1,24.1,28.20,SW,223,5.8,8.7,17,0.00,,,0.00,VWS V14.00,2013-03-13 00:52:00,
2013-03-12 18:54:00,72.3,25.1,28.20,SSW,197,5.4,8.7,17,0.00,,,0.00,VWS V14.00,2013-03-13 00:54:00,
2013-03-12 18:57:00,72.5,25.2,28.20,SSW,205,2.7,8.7,17,0.00,,,0.00,VWS V14.00,2013-03-13 00:57:00,
2013-03-12 18:58:00,72.3,25.1,28.20,SSW,205,2.7,8.7,17,0.00,,,0.00,VWS V14.00,2013-03-13 00:58:00,
2013-03-12 19:00:00,71.8,24.7,28.20,SSW,201,0.0,8.7,17,0.00,,,0.00,VWS V14.00,2013-03-13 01:00:00,
2013-03-12 19:03:00,70.3,23.5,28.20,SSW,201,0.0,0.0,17,0.00,,,0.00,VWS V14.00,2013-03-13 01:03:00,
2013-03-12 19:04:00,70.3,23.5,28.20,SSW,201,0.0,0.0,17,0.00,,,0.00,VWS V14.00,2013-03-13 01:04:00,
2013-03-12 19:05:00,70.0,23.2,28.20,SSW,201,0.0,0.0,17,0.00,,,0.00,VWS V14.00,2013-03-13 01:05:00,
2013-03-12 19:08:00,69.1,23.8,28.20,North,5,5.4,5.4,18,0.00,,,0.00,VWS V14.00,2013-03-13 01:08:00,
2013-03-12 19:09:00,69.3,24.0,28.20,North,6,8.1,8.1,18,0.00,,,0.00,VWS V14.00,2013-03-13 01:09:00,
2013-03-12 19:10:00,69.4,24.1,28.20,NNW,333,5.4,8.3,18,0.00,,,0.00,VWS V14.00,2013-03-13 01:10:00,
2013-03-12 19:13:00,70.3,23.5,28.20,North,357,3.1,8.7,17,0.00,,,0.00,VWS V14.00,2013-03-13 01:13:00,
2013-03-12 19:14:00,70.3,23.5,28.20,NNW,344,3.1,8.7,17,0.00,,,0.00,VWS V14.00,2013-03-13 01:14:00,
2013-03-12 19:16:00,71.1,24.1,28.20,North,357,6.3,6.3,17,0.00,,,0.00,VWS V14.00,2013-03-13 01:16:00,
2013-03-12 19:18:00,71.1,24.1,28.20,North,357,0.0,6.3,17,0.00,,,0.00,VWS V14.00,2013-03-13 01:18:00,
2013-03-12 19:19:00,70.7,23.8,28.20,North,350,3.1,6.3,17,0.00,,,0.00,VWS V14.00,2013-03-13 01:19:00,
2013-03-12 19:20:00,70.3,23.5,28.20,WNW,295,3.6,6.3,17,0.00,,,0.00,VWS V14.00,2013-03-13 01:20:00,
2013-03-12 19:23:00,70.9,23.9,28.20,WNW,299,5.8,8.3,17,0.00,,,0.00,VWS V14.00,2013-03-13 01:23:00,
2013-03-12 19:24:00,70.9,23.9,28.20,NW,315,4.9,8.3,17,0.00,,,0.00,VWS V14.00,2013-03-13 01:24:00,
2013-03-12 19:26:00,70.7,23.8,28.20,NW,326,4.0,8.3,17,0.00,,,0.00,VWS V14.00,2013-03-13 01:26:00,
2013-03-12 19:28:00,70.0,23.2,28.20,NNW,328,4.0,8.3,17,0.00,,,0.00,VWS V14.00,2013-03-13 01:28:00,
2013-03-12 19:29:00,69.4,24.1,28.20,North,6,4.0,8.3,18,0.00,,,0.00,VWS V14.00,2013-03-13 01:29:00,
2013-03-12 19:30:00,69.3,24.0,28.20,NNW,348,4.9,8.3,18,0.00,,,0.00,VWS V14.00,2013-03-13 01:30:00,
2013-03-12 19:31:00,69.1,23.8,28.20,North,0,4.0,4.9,18,0.00,,,0.00,VWS V14.00,2013-03-13 01:31:00,
2013-03-12 19:33:00,68.9,23.7,28.20,North,357,2.7,6.3,18,0.00,,,0.00,VWS V14.00,2013-03-13 01:33:00,
2013-03-12 19:34:00,68.5,23.4,28.20,North,357,2.7,6.3,18,0.00,,,0.00,VWS V14.00,2013-03-13 01:34:00,
2013-03-12 19:35:00,68.5,23.4,28.20,North,1,2.7,6.3,18,0.00,,,0.00,VWS V14.00,2013-03-13 01:35:00,
2013-03-12 19:37:00,68.0,23.0,28.20,NNW,339,5.8,6.3,18,0.00,,,0.00,VWS V14.00,2013-03-13 01:37:00,
2013-03-12 19:39:00,67.6,22.6,28.20,NNW,328,5.4,6.3,18,0.00,,,0.00,VWS V14.00,2013-03-13 01:39:00,
2013-03-12 19:40:00,67.6,22.6,28.20,NW,325,5.8,6.3,18,0.00,,,0.00,VWS V14.00,2013-03-13 01:40:00,
2013-03-12 19:41:00,67.6,22.6,28.20,NW,324,4.0,6.3,18,0.00,,,0.00,VWS V14.00,2013-03-13 01:41:00,
2013-03-12 19:43:00,67.5,22.5,28.20,NNW,343,2.7,6.3,18,0.00,,,0.00,VWS V14.00,2013-03-13 01:43:00,
2013-03-12 19:45:00,67.1,22.2,28.20,NNW,346,2.7,2.7,18,0.00,,,0.00,VWS V14.00,2013-03-13 01:45:00,
2013-03-12 19:46:00,66.9,22.1,28.20,NNW,346,2.7,2.7,18,0.00,,,0.00,VWS V14.00,2013-03-13 01:46:00,
2013-03-12 19:48:00,66.6,21.8,28.20,NNW,345,2.7,4.9,18,0.00,,,0.00,VWS V14.00,2013-03-13 01:48:00,
2013-03-12 19:52:00,66.0,21.3,28.20,NNW,346,2.7,4.9,18,0.00,,,0.00,VWS V14.00,2013-03-13 01:52:00,
2013-03-12 19:53:00,66.0,21.3,28.20,NNW,348,3.1,4.9,18,0.00,,,0.00,VWS V14.00,2013-03-13 01:53:00,
2013-03-12 19:58:00,65.5,20.9,28.20,NNW,348,0.0,4.9,18,0.00,,,0.00,VWS V14.00,2013-03-13 01:58:00,
2013-03-12 19:59:00,65.3,20.7,28.20,NNW,348,0.0,4.9,18,0.00,,,0.00,VWS V14.00,2013-03-13 01:59:00,
2013-03-12 20:00:00,65.1,20.6,28.20,NNW,348,0.0,0.0,18,0.00,,,0.00,VWS V14.00,2013-03-13 02:00:00,
2013-03-12 20:01:00,64.9,20.4,28.20,NNW,348,0.0,0.0,18,0.00,,,0.00,VWS V14.00,2013-03-13 02:01:00,
2013-03-12 20:03:00,64.6,20.1,28.20,NNW,348,2.7,4.0,18,0.00,,,0.00,VWS V14.00,2013-03-13 02:03:00,
2013-03-12 20:05:00,64.4,20.0,28.20,NNW,340,3.1,4.9,18,0.00,,,0.00,VWS V14.00,2013-03-13 02:05:00,
2013-03-12 20:06:00,64.4,20.0,28.20,NNW,340,3.6,4.9,18,0.00,,,0.00,VWS V14.00,2013-03-13 02:06:00,
2013-03-12 20:07:00,64.4,20.0,28.20,NNW,333,4.0,4.9,18,0.00,,,0.00,VWS V14.00,2013-03-13 02:07:00,
2013-03-12 20:12:00,64.2,21.1,28.20,NNW,333,2.7,5.8,19,0.00,,,0.00,VWS V14.00,2013-03-13 02:12:00,
2013-03-12 20:14:00,64.0,21.0,28.20,NNW,348,0.0,5.8,19,0.00,,,0.00,VWS V14.00,2013-03-13 02:14:00,
2013-03-12 20:18:00,63.7,20.7,28.20,North,357,0.0,4.0,19,0.00,,,0.00,VWS V14.00,2013-03-13 02:18:00,
2013-03-12 20:23:00,63.0,20.1,28.20,North,357,2.2,4.0,19,0.00,,,0.00,VWS V14.00,2013-03-13 02:23:00,
2013-03-12 20:25:00,63.3,20.4,28.20,NNE,12,3.1,4.0,19,0.00,,,0.00,VWS V14.00,2013-03-13 02:25:00,
2013-03-12 20:29:00,64.8,20.3,28.20,ENE,74,6.3,11.0,18,0.00,,,0.00,VWS V14.00,2013-03-13 02:29:00,
2013-03-12 20:30:00,64.6,20.1,28.20,ENE,63,7.6,11.0,18,0.00,,,0.00,VWS V14.00,2013-03-13 02:30:00,
2013-03-12 20:36:00,64.2,21.1,28.23,NE,46,8.7,13.2,19,0.00,,,0.00,VWS V14.00,2013-03-13 02:36:00,
2013-03-12 20:37:00,64.2,21.1,28.23,ENE,67,6.3,13.2,19,0.00,,,0.00,VWS V14.00,2013-03-13 02:37:00,
2013-03-12 20:38:00,64.2,21.1,28.23,NE,51,5.4,13.2,19,0.00,,,0.00,VWS V14.00,2013-03-13 02:38:00,
2013-03-12 20:42:00,64.0,21.0,28.23,ENE,69,8.7,13.2,19,0.00,,,0.00,VWS V14.00,2013-03-13 02:42:00,
2013-03-12 20:44:00,64.0,21.0,28.23,ENE,61,10.1,13.2,19,0.00,,,0.00,VWS V14.00,2013-03-13 02:44:00,
2013-03-12 20:45:00,64.0,21.0,28.23,NE,44,6.3,13.2,19,0.00,,,0.00,VWS V14.00,2013-03-13 02:45:00,
2013-03-12 20:50:00,63.7,20.7,28.23,ENE,70,8.1,14.1,19,0.00,,,0.00,VWS V14.00,2013-03-13 02:50:00,
2013-03-12 20:51:00,63.5,20.5,28.23,East,89,5.8,14.1,19,0.00,,,0.00,VWS V14.00,2013-03-13 02:51:00,
2013-03-12 20:52:00,63.3,20.4,28.23,ENE,70,5.4,14.1,19,0.00,,,0.00,VWS V14.00,2013-03-13 02:52:00,
2013-03-12 20:57:00,63.1,20.2,28.23,NE,50,5.4,14.1,19,0.00,,,0.00,VWS V14.00,2013-03-13 02:57:00,
2013-03-12 20:58:00,63.0,20.1,28.23,ENE,74,8.3,14.1,19,0.00,,,0.00,VWS V14.00,2013-03-13 02:58:00,
2013-03-12 21:03:00,63.0,20.1,28.23,ENE,73,7.2,9.6,19,0.00,,,0.00,VWS V14.00,2013-03-13 03:03:00,
2013-03-12 21:05:00,62.6,19.8,28.23,East,84,8.3,9.6,19,0.00,,,0.00,VWS V14.00,2013-03-13 03:05:00,
2013-03-12 21:10:00,62.6,19.8,28.23,ENE,60,8.1,11.4,19,0.00,,,0.00,VWS V14.00,2013-03-13 03:10:00,
2013-03-12 21:11:00,62.4,19.6,28.23,ENE,58,7.2,11.4,19,0.00,,,0.00,VWS V14.00,2013-03-13 03:11:00,
2013-03-12 21:13:00,62.6,19.8,28.23,ENE,58,6.3,11.4,19,0.00,,,0.00,VWS V14.00,2013-03-13 03:13:00,
2013-03-12 21:16:00,62.4,19.6,28.23,ENE,68,8.1,15.4,19,0.00,,,0.00,VWS V14.00,2013-03-13 03:16:00,
2013-03-12 21:17:00,62.2,19.5,28.23,ENE,69,9.6,15.4,19,0.00,,,0.00,VWS V14.00,2013-03-13 03:17:00,
2013-03-12 21:21:00,62.1,19.3,28.26,ENE,66,7.6,15.4,19,0.00,,,0.00,VWS V14.00,2013-03-13 03:21:00,
2013-03-12 21:23:00,62.1,19.3,28.26,North,357,4.0,15.4,19,0.00,,,0.00,VWS V14.00,2013-03-13 03:23:00,
2013-03-12 21:27:00,61.7,19.0,28.26,NE,37,5.8,15.4,19,0.00,,,0.00,VWS V14.00,2013-03-13 03:27:00,
2013-03-12 21:28:00,61.9,19.2,28.26,ENE,64,5.4,15.4,19,0.00,,,0.00,VWS V14.00,2013-03-13 03:28:00,
2013-03-12 21:30:00,61.7,19.0,28.26,ENE,75,5.4,15.4,19,0.00,,,0.00,VWS V14.00,2013-03-13 03:30:00,
2013-03-12 21:32:00,61.5,18.9,28.26,ENE,70,6.3,8.7,19,0.00,,,0.00,VWS V14.00,2013-03-13 03:32:00,
2013-03-12 21:33:00,61.7,19.0,28.26,NE,55,10.1,12.3,19,0.00,,,0.00,VWS V14.00,2013-03-13 03:33:00,
2013-03-12 21:37:00,61.5,18.9,28.26,NNE,22,5.8,12.3,19,0.00,,,0.00,VWS V14.00,2013-03-13 03:37:00,
2013-03-12 21:38:00,61.2,18.6,28.26,ENE,59,4.0,12.3,19,0.00,,,0.00,VWS V14.00,2013-03-13 03:38:00,
2013-03-12 21:41:00,61.2,18.6,28.26,NE,56,6.3,12.3,19,0.00,,,0.00,VWS V14.00,2013-03-13 03:41:00,
2013-03-12 21:42:00,61.2,18.6,28.26,NE,43,5.4,12.3,19,0.00,,,0.00,VWS V14.00,2013-03-13 03:42:00,
2013-03-12 21:44:00,61.3,18.8,28.26,ENE,64,5.4,12.3,19,0.00,,,0.00,VWS V14.00,2013-03-13 03:44:00,
2013-03-12 21:47:00,60.8,18.3,28.26,ENE,63,6.3,8.3,19,0.00,,,0.00,VWS V14.00,2013-03-13 03:47:00,
2013-03-12 21:48:00,60.8,18.3,28.26,ENE,61,6.3,8.3,19,0.00,,,0.00,VWS V14.00,2013-03-13 03:48:00,
2013-03-12 21:49:00,60.8,18.3,28.26,NE,49,4.0,8.3,19,0.00,,,0.00,VWS V14.00,2013-03-13 03:49:00,
2013-03-12 21:53:00,60.8,18.3,28.26,North,11,4.9,8.7,19,0.00,,,0.00,VWS V14.00,2013-03-13 03:53:00,
2013-03-12 21:58:00,60.6,19.4,28.26,East,81,5.8,8.7,20,0.00,,,0.00,VWS V14.00,2013-03-13 03:58:00,
2013-03-12 21:59:00,60.8,18.3,28.26,ENE,61,5.8,8.7,19,0.00,,,0.00,VWS V14.00,2013-03-13 03:59:00,
2013-03-12 22:00:00,61.0,18.5,28.26,NE,52,8.1,8.1,19,0.00,,,0.00,VWS V14.00,2013-03-13 04:00:00,
2013-03-12 22:01:00,61.0,18.5,28.26,ENE,60,6.3,10.5,19,0.00,,,0.00,VWS V14.00,2013-03-13 04:01:00,
2013-03-12 22:04:00,60.8,18.3,28.26,NE,49,5.8,10.5,19,0.00,,,0.00,VWS V14.00,2013-03-13 04:04:00,
2013-03-12 22:05:00,60.8,18.3,28.26,NE,36,7.6,10.5,19,0.00,,,0.00,VWS V14.00,2013-03-13 04:05:00,
2013-03-12 22:07:00,60.6,19.4,28.26,ENE,68,5.8,10.5,20,0.00,,,0.00,VWS V14.00,2013-03-13 04:07:00,
2013-03-12 22:10:00,60.6,19.4,28.26,ENE,69,8.3,11.9,20,0.00,,,0.00,VWS V14.00,2013-03-13 04:10:00,
2013-03-12 22:12:00,60.6,19.4,28.26,ENE,58,5.8,11.9,20,0.00,,,0.00,VWS V14.00,2013-03-13 04:12:00,
2013-03-12 22:14:00,60.4,19.2,28.26,ENE,60,4.0,11.9,20,0.00,,,0.00,VWS V14.00,2013-03-13 04:14:00,
2013-03-12 22:15:00,60.1,18.9,28.26,ENE,72,4.0,4.0,20,0.00,,,0.00,VWS V14.00,2013-03-13 04:15:00,
2013-03-12 22:19:00,60.3,19.0,28.29,ENE,62,8.1,10.1,20,0.00,,,0.00,VWS V14.00,2013-03-13 04:19:00,
2013-03-12 22:20:00,60.3,19.0,28.29,ENE,60,4.0,10.1,20,0.00,,,0.00,VWS V14.00,2013-03-13 04:20:00,
2013-03-12 22:22:00,60.4,19.2,28.29,NE,49,8.1,10.1,20,0.00,,,0.00,VWS V14.00,2013-03-13 04:22:00,
2013-03-12 22:25:00,59.7,18.6,28.29,NE,52,7.6,10.1,20,0.00,,,0.00,VWS V14.00,2013-03-13 04:25:00,
2013-03-12 22:26:00,59.7,17.4,28.29,NE,45,4.0,10.1,19,0.00,,,0.00,VWS V14.00,2013-03-13 04:26:00,
2013-03-12 22:29:00,60.1,17.7,28.29,ENE,71,7.6,10.1,19,0.00,,,0.00,VWS V14.00,2013-03-13 04:29:00,
2013-03-12 22:31:00,60.1,17.7,28.29,NE,56,4.0,5.8,19,0.00,,,0.00,VWS V14.00,2013-03-13 04:31:00,
2013-03-12 22:32:00,59.9,17.6,28.29,NE,37,4.0,8.3,19,0.00,,,0.00,VWS V14.00,2013-03-13 04:32:00,
2013-03-12 22:33:00,59.9,17.6,28.29,ENE,78,4.0,8.3,19,0.00,,,0.00,VWS V14.00,2013-03-13 04:33:00,
2013-03-12 22:35:00,59.9,17.6,28.29,NE,46,6.3,9.6,19,0.00,,,0.00,VWS V14.00,2013-03-13 04:35:00,
2013-03-12 22:38:00,59.9,17.6,28.29,NE,44,6.3,9.6,19,0.00,,,0.00,VWS V14.00,2013-03-13 04:38:00,
2013-03-12 22:39:00,59.9,17.6,28.29,NE,36,8.1,9.6,19,0.00,,,0.00,VWS V14.00,2013-03-13 04:39:00,
2013-03-12 22:43:00,59.4,17.1,28.29,NE,54,6.3,9.6,19,0.00,,,0.00,VWS V14.00,2013-03-13 04:43:00,
2013-03-12 22:44:00,59.2,17.0,28.29,NE,42,4.0,9.6,19,0.00,,,0.00,VWS V14.00,2013-03-13 04:44:00,
2013-03-12 22:45:00,59.2,17.0,28.29,NE,36,6.3,9.6,19,0.00,,,0.00,VWS V14.00,2013-03-13 04:45:00,
2013-03-12 22:48:00,59.2,17.0,28.29,NE,45,4.0,10.5,19,0.00,,,0.00,VWS V14.00,2013-03-13 04:48:00,
2013-03-12 22:49:00,59.2,17.0,28.29,NE,54,5.4,10.5,19,0.00,,,0.00,VWS V14.00,2013-03-13 04:49:00,
2013-03-12 22:50:00,59.4,17.1,28.29,NNE,24,8.1,10.5,19,0.00,,,0.00,VWS V14.00,2013-03-13 04:50:00,
2013-03-12 22:54:00,59.5,17.3,28.29,NE,54,8.1,11.0,19,0.00,,,0.00,VWS V14.00,2013-03-13 04:54:00,
2013-03-12 22:55:00,59.5,17.3,28.29,NE,41,6.3,11.0,19,0.00,,,0.00,VWS V14.00,2013-03-13 04:55:00,
2013-03-12 22:58:00,59.0,16.8,28.29,NNE,28,5.4,11.0,19,0.00,,,0.00,VWS V14.00,2013-03-13 04:58:00,
2013-03-12 23:00:00,58.8,17.9,28.29,NNE,23,8.7,11.0,20,0.00,,,0.00,VWS V14.00,2013-03-13 05:00:00,
2013-03-12 23:01:00,58.8,17.9,28.29,ENE,59,5.8,5.8,20,0.00,,,0.00,VWS V14.00,2013-03-13 05:01:00,
2013-03-12 23:04:00,59.0,16.8,28.29,NE,54,3.1,11.0,19,0.00,,,0.00,VWS V14.00,2013-03-13 05:04:00,
2013-03-12 23:05:00,58.8,17.9,28.29,NNE,32,8.7,11.0,20,0.00,,,0.00,VWS V14.00,2013-03-13 05:05:00,
2013-03-12 23:07:00,59.0,16.8,28.29,NE,44,7.6,11.0,19,0.00,,,0.00,VWS V14.00,2013-03-13 05:07:00,
2013-03-12 23:09:00,59.0,16.8,28.29,NE,47,7.6,14.1,19,0.00,,,0.00,VWS V14.00,2013-03-13 05:09:00,
2013-03-12 23:10:00,59.0,16.8,28.29,NE,36,8.1,14.1,19,0.00,,,0.00,VWS V14.00,2013-03-13 05:10:00,
2013-03-12 23:11:00,59.0,16.8,28.29,NE,55,6.7,14.1,19,0.00,,,0.00,VWS V14.00,2013-03-13 05:11:00,
2013-03-12 23:13:00,59.0,16.8,28.29,NNE,32,5.4,14.1,19,0.00,,,0.00,VWS V14.00,2013-03-13 05:13:00,
2013-03-12 23:15:00,58.8,17.9,28.29,North,2,6.3,14.1,20,0.00,,,0.00,VWS V14.00,2013-03-13 05:15:00,
2013-03-12 23:19:00,58.6,17.7,28.29,NE,43,5.8,11.0,20,0.00,,,0.00,VWS V14.00,2013-03-13 05:19:00,
2013-03-12 23:21:00,58.5,17.6,28.29,NNE,29,8.1,11.0,20,0.00,,,0.00,VWS V14.00,2013-03-13 05:21:00,
2013-03-12 23:24:00,58.5,17.6,28.29,NE,45,6.3,11.0,20,0.00,,,0.00,VWS V14.00,2013-03-13 05:24:00,
2013-03-12 23:26:00,58.3,17.4,28.29,NE,52,5.8,12.3,20,0.00,,,0.00,VWS V14.00,2013-03-13 05:26:00,
2013-03-12 23:27:00,58.3,17.4,28.29,North,11,3.6,12.3,20,0.00,,,0.00,VWS V14.00,2013-03-13 05:27:00,
2013-03-12 23:28:00,58.3,17.4,28.29,NE,54,7.6,12.3,20,0.00,,,0.00,VWS V14.00,2013-03-13 05:28:00,
2013-03-12 23:30:00,58.3,17.4,28.29,NNE,25,6.3,12.3,20,0.00,,,0.00,VWS V14.00,2013-03-13 05:30:00,
2013-03-12 23:32:00,58.1,17.3,28.29,NE,35,5.4,7.6,20,0.00,,,0.00,VWS V14.00,2013-03-13 05:32:00,
2013-03-12 23:33:00,57.9,17.1,28.29,NNE,33,4.0,7.6,20,0.00,,,0.00,VWS V14.00,2013-03-13 05:33:00,
2013-03-12 23:35:00,57.9,17.1,28.29,NNE,12,5.8,8.1,20,0.00,,,0.00,VWS V14.00,2013-03-13 05:35:00,
2013-03-12 23:38:00,57.7,17.0,28.29,NE,37,8.3,8.3,20,0.00,,,0.00,VWS V14.00,2013-03-13 05:38:00,
2013-03-12 23:39:00,57.9,17.1,28.29,NE,40,5.4,8.3,20,0.00,,,0.00,VWS V14.00,2013-03-13 05:39:00,
2013-03-12 23:40:00,57.7,17.0,28.29,NE,52,4.0,8.7,20,0.00,,,0.00,VWS V14.00,2013-03-13 05:40:00,
2013-03-12 23:43:00,57.4,16.7,28.29,ENE,58,5.8,8.7,20,0.00,,,0.00,VWS V14.00,2013-03-13 05:43:00,
2013-03-12 23:45:00,57.4,16.7,28.29,ENE,68,6.3,6.3,20,0.00,,,0.00,VWS V14.00,2013-03-13 05:45:00,
2013-03-12 23:49:00,57.2,16.5,28.32,NNE,31,2.7,7.2,20,0.00,,,0.00,VWS V14.00,2013-03-13 05:49:00,
2013-03-12 23:50:00,57.2,16.5,28.32,NNE,32,3.1,7.2,20,0.00,,,0.00,VWS V14.00,2013-03-13 05:50:00,
2013-03-12 23:52:00,56.7,16.1,28.32,NNE,33,2.2,7.2,20,0.00,,,0.00,VWS V14.00,2013-03-13 05:52:00,
2013-03-12 23:55:00,56.8,16.2,28.32,NE,36,5.8,7.2,20,0.00,,,0.00,VWS V14.00,2013-03-13 05:55:00,
2013-03-12 23:56:00,57.2,16.5,28.32,ENE,63,5.4,8.1,20,0.00,,,0.00,VWS V14.00,2013-03-13 05:56:00,
2013-03-12 23:58:00,57.0,16.4,28.32,NE,46,4.0,8.1,20,0.00,,,0.00,VWS V14.00,2013-03-13 05:58:00,